<?xml version="1.0" encoding="UTF-8" standalone="no" ?>
<gpx xmlns="http://www.topografix.com/GPX/1/1" xmlns:xsi="http://www.w3.org/2001/XMLSchema-instance" xsi:schemaLocation="http://www.topografix.com/GPX/1/1 http://www.topografix.com/GPX/1/1/gpx.xsd" version="1.1" creator="VisuGPX - https://www.visugpx.com">
  <metadata>
    <name>2020 Bretagne </name>
  </metadata>
  <trk>
    <name><![CDATA[20-08-12]]></name>
    <trkseg>
      <trkpt lat="47.58885" lon="-3.03163">
        <ele>20.81</ele>
        <time>2020-08-12T07:12:11Z</time>
      </trkpt>
      <trkpt lat="47.58885" lon="-3.03163">
        <ele>20.81</ele>
        <time>2020-08-12T07:12:12Z</time>
      </trkpt>
      <trkpt lat="47.5889" lon="-3.03166">
        <ele>17.44</ele>
        <time>2020-08-12T07:12:34Z</time>
      </trkpt>
      <trkpt lat="47.5889" lon="-3.03166">
        <ele>12.15</ele>
        <time>2020-08-12T07:12:35Z</time>
      </trkpt>
      <trkpt lat="47.58889" lon="-3.03167">
        <ele>18.88</ele>
        <time>2020-08-12T07:12:36Z</time>
      </trkpt>
      <trkpt lat="47.58886" lon="-3.0317">
        <ele>17.44</ele>
        <time>2020-08-12T07:12:51Z</time>
      </trkpt>
      <trkpt lat="47.58885" lon="-3.03171">
        <ele>16</ele>
        <time>2020-08-12T07:13:11Z</time>
      </trkpt>
      <trkpt lat="47.58886" lon="-3.03171">
        <ele>16</ele>
        <time>2020-08-12T07:13:37Z</time>
      </trkpt>
      <trkpt lat="47.58885" lon="-3.03172">
        <ele>15.52</ele>
        <time>2020-08-12T07:13:54Z</time>
      </trkpt>
      <trkpt lat="47.58886" lon="-3.03174">
        <ele>16</ele>
        <time>2020-08-12T07:14:20Z</time>
      </trkpt>
      <trkpt lat="47.58886" lon="-3.03174">
        <ele>15.04</ele>
        <time>2020-08-12T07:14:44Z</time>
      </trkpt>
      <trkpt lat="47.58886" lon="-3.03173">
        <ele>15.52</ele>
        <time>2020-08-12T07:15:02Z</time>
      </trkpt>
      <trkpt lat="47.58886" lon="-3.03173">
        <ele>15.04</ele>
        <time>2020-08-12T07:15:27Z</time>
      </trkpt>
      <trkpt lat="47.58887" lon="-3.03172">
        <ele>15.04</ele>
        <time>2020-08-12T07:15:47Z</time>
      </trkpt>
      <trkpt lat="47.58886" lon="-3.03172">
        <ele>15.04</ele>
        <time>2020-08-12T07:16:03Z</time>
      </trkpt>
      <trkpt lat="47.58886" lon="-3.03171">
        <ele>15.04</ele>
        <time>2020-08-12T07:16:22Z</time>
      </trkpt>
      <trkpt lat="47.58886" lon="-3.03172">
        <ele>15.52</ele>
        <time>2020-08-12T07:16:39Z</time>
      </trkpt>
      <trkpt lat="47.58886" lon="-3.03171">
        <ele>15.04</ele>
        <time>2020-08-12T07:17:01Z</time>
      </trkpt>
      <trkpt lat="47.58886" lon="-3.03168">
        <ele>14.56</ele>
        <time>2020-08-12T07:17:24Z</time>
      </trkpt>
      <trkpt lat="47.58885" lon="-3.0316">
        <ele>13.6</ele>
        <time>2020-08-12T07:17:37Z</time>
      </trkpt>
      <trkpt lat="47.58885" lon="-3.03156">
        <ele>13.6</ele>
        <time>2020-08-12T07:17:40Z</time>
      </trkpt>
      <trkpt lat="47.58885" lon="-3.03143">
        <ele>12.63</ele>
        <time>2020-08-12T07:17:51Z</time>
      </trkpt>
      <trkpt lat="47.58884" lon="-3.03126">
        <ele>11.67</ele>
        <time>2020-08-12T07:18:03Z</time>
      </trkpt>
      <trkpt lat="47.58886" lon="-3.03116">
        <ele>11.19</ele>
        <time>2020-08-12T07:18:14Z</time>
      </trkpt>
      <trkpt lat="47.58887" lon="-3.03115">
        <ele>11.19</ele>
        <time>2020-08-12T07:18:15Z</time>
      </trkpt>
      <trkpt lat="47.58884" lon="-3.03102">
        <ele>10.23</ele>
        <time>2020-08-12T07:18:27Z</time>
      </trkpt>
      <trkpt lat="47.58881" lon="-3.03085">
        <ele>9.27</ele>
        <time>2020-08-12T07:18:39Z</time>
      </trkpt>
      <trkpt lat="47.58884" lon="-3.03071">
        <ele>8.31</ele>
        <time>2020-08-12T07:18:44Z</time>
      </trkpt>
      <trkpt lat="47.58883" lon="-3.03065">
        <ele>7.83</ele>
        <time>2020-08-12T07:18:47Z</time>
      </trkpt>
      <trkpt lat="47.58878" lon="-3.03061">
        <ele>8.31</ele>
        <time>2020-08-12T07:18:51Z</time>
      </trkpt>
      <trkpt lat="47.58874" lon="-3.03052">
        <ele>7.83</ele>
        <time>2020-08-12T07:19:04Z</time>
      </trkpt>
      <trkpt lat="47.58874" lon="-3.03049">
        <ele>7.35</ele>
        <time>2020-08-12T07:19:07Z</time>
      </trkpt>
      <trkpt lat="47.58877" lon="-3.03045">
        <ele>7.83</ele>
        <time>2020-08-12T07:19:11Z</time>
      </trkpt>
      <trkpt lat="47.58879" lon="-3.03041">
        <ele>7.83</ele>
        <time>2020-08-12T07:19:16Z</time>
      </trkpt>
      <trkpt lat="47.58888" lon="-3.03033">
        <ele>7.35</ele>
        <time>2020-08-12T07:19:27Z</time>
      </trkpt>
      <trkpt lat="47.58897" lon="-3.03027">
        <ele>7.35</ele>
        <time>2020-08-12T07:19:41Z</time>
      </trkpt>
      <trkpt lat="47.58905" lon="-3.03023">
        <ele>7.83</ele>
        <time>2020-08-12T07:19:52Z</time>
      </trkpt>
      <trkpt lat="47.58914" lon="-3.03011">
        <ele>7.83</ele>
        <time>2020-08-12T07:20:04Z</time>
      </trkpt>
      <trkpt lat="47.58917" lon="-3.03008">
        <ele>7.35</ele>
        <time>2020-08-12T07:20:09Z</time>
      </trkpt>
      <trkpt lat="47.5892" lon="-3.03006">
        <ele>7.35</ele>
        <time>2020-08-12T07:20:11Z</time>
      </trkpt>
      <trkpt lat="47.58926" lon="-3.03001">
        <ele>7.83</ele>
        <time>2020-08-12T07:20:18Z</time>
      </trkpt>
      <trkpt lat="47.58928" lon="-3.02987">
        <ele>7.35</ele>
        <time>2020-08-12T07:20:33Z</time>
      </trkpt>
      <trkpt lat="47.58925" lon="-3.02979">
        <ele>6.87</ele>
        <time>2020-08-12T07:20:43Z</time>
      </trkpt>
      <trkpt lat="47.58924" lon="-3.02975">
        <ele>6.87</ele>
        <time>2020-08-12T07:20:46Z</time>
      </trkpt>
      <trkpt lat="47.58919" lon="-3.02958">
        <ele>6.87</ele>
        <time>2020-08-12T07:20:59Z</time>
      </trkpt>
      <trkpt lat="47.58922" lon="-3.02941">
        <ele>7.35</ele>
        <time>2020-08-12T07:21:09Z</time>
      </trkpt>
      <trkpt lat="47.58924" lon="-3.02932">
        <ele>7.35</ele>
        <time>2020-08-12T07:21:16Z</time>
      </trkpt>
      <trkpt lat="47.58919" lon="-3.0292">
        <ele>6.39</ele>
        <time>2020-08-12T07:21:26Z</time>
      </trkpt>
      <trkpt lat="47.58916" lon="-3.02914">
        <ele>6.39</ele>
        <time>2020-08-12T07:21:32Z</time>
      </trkpt>
      <trkpt lat="47.58916" lon="-3.02907">
        <ele>6.39</ele>
        <time>2020-08-12T07:21:36Z</time>
      </trkpt>
      <trkpt lat="47.58915" lon="-3.02895">
        <ele>5.91</ele>
        <time>2020-08-12T07:21:44Z</time>
      </trkpt>
      <trkpt lat="47.58915" lon="-3.02891">
        <ele>6.87</ele>
        <time>2020-08-12T07:21:46Z</time>
      </trkpt>
      <trkpt lat="47.58912" lon="-3.0288">
        <ele>6.39</ele>
        <time>2020-08-12T07:21:59Z</time>
      </trkpt>
      <trkpt lat="47.58912" lon="-3.02872">
        <ele>5.91</ele>
        <time>2020-08-12T07:22:06Z</time>
      </trkpt>
      <trkpt lat="47.58899" lon="-3.02862">
        <ele>6.39</ele>
        <time>2020-08-12T07:22:21Z</time>
      </trkpt>
      <trkpt lat="47.58895" lon="-3.0286">
        <ele>6.39</ele>
        <time>2020-08-12T07:22:24Z</time>
      </trkpt>
      <trkpt lat="47.58891" lon="-3.02855">
        <ele>6.39</ele>
        <time>2020-08-12T07:22:33Z</time>
      </trkpt>
      <trkpt lat="47.5889" lon="-3.02849">
        <ele>6.39</ele>
        <time>2020-08-12T07:22:36Z</time>
      </trkpt>
      <trkpt lat="47.58883" lon="-3.02836">
        <ele>6.39</ele>
        <time>2020-08-12T07:22:49Z</time>
      </trkpt>
      <trkpt lat="47.58882" lon="-3.02835">
        <ele>6.39</ele>
        <time>2020-08-12T07:22:50Z</time>
      </trkpt>
      <trkpt lat="47.58881" lon="-3.02831">
        <ele>6.39</ele>
        <time>2020-08-12T07:22:53Z</time>
      </trkpt>
      <trkpt lat="47.58878" lon="-3.02828">
        <ele>6.39</ele>
        <time>2020-08-12T07:22:57Z</time>
      </trkpt>
      <trkpt lat="47.58868" lon="-3.0281">
        <ele>6.39</ele>
        <time>2020-08-12T07:23:12Z</time>
      </trkpt>
      <trkpt lat="47.58852" lon="-3.028">
        <ele>6.39</ele>
        <time>2020-08-12T07:23:28Z</time>
      </trkpt>
      <trkpt lat="47.58838" lon="-3.02787">
        <ele>6.39</ele>
        <time>2020-08-12T07:23:42Z</time>
      </trkpt>
      <trkpt lat="47.58837" lon="-3.02785">
        <ele>6.87</ele>
        <time>2020-08-12T07:23:44Z</time>
      </trkpt>
      <trkpt lat="47.5882" lon="-3.0277">
        <ele>6.87</ele>
        <time>2020-08-12T07:24:01Z</time>
      </trkpt>
      <trkpt lat="47.58803" lon="-3.02754">
        <ele>6.39</ele>
        <time>2020-08-12T07:24:18Z</time>
      </trkpt>
      <trkpt lat="47.58793" lon="-3.02748">
        <ele>6.87</ele>
        <time>2020-08-12T07:24:28Z</time>
      </trkpt>
      <trkpt lat="47.58786" lon="-3.02743">
        <ele>6.87</ele>
        <time>2020-08-12T07:24:35Z</time>
      </trkpt>
      <trkpt lat="47.5877" lon="-3.02729">
        <ele>6.39</ele>
        <time>2020-08-12T07:24:52Z</time>
      </trkpt>
      <trkpt lat="47.58757" lon="-3.02718">
        <ele>6.87</ele>
        <time>2020-08-12T07:25:04Z</time>
      </trkpt>
      <trkpt lat="47.58747" lon="-3.02697">
        <ele>6.39</ele>
        <time>2020-08-12T07:25:19Z</time>
      </trkpt>
      <trkpt lat="47.58745" lon="-3.02692">
        <ele>5.91</ele>
        <time>2020-08-12T07:25:22Z</time>
      </trkpt>
      <trkpt lat="47.58741" lon="-3.02683">
        <ele>5.91</ele>
        <time>2020-08-12T07:25:29Z</time>
      </trkpt>
      <trkpt lat="47.58733" lon="-3.02665">
        <ele>6.39</ele>
        <time>2020-08-12T07:25:43Z</time>
      </trkpt>
      <trkpt lat="47.58726" lon="-3.02651">
        <ele>6.39</ele>
        <time>2020-08-12T07:25:54Z</time>
      </trkpt>
      <trkpt lat="47.58727" lon="-3.02646">
        <ele>6.39</ele>
        <time>2020-08-12T07:26:04Z</time>
      </trkpt>
      <trkpt lat="47.58728" lon="-3.02642">
        <ele>6.39</ele>
        <time>2020-08-12T07:26:14Z</time>
      </trkpt>
      <trkpt lat="47.58725" lon="-3.02642">
        <ele>5.91</ele>
        <time>2020-08-12T07:26:17Z</time>
      </trkpt>
      <trkpt lat="47.58722" lon="-3.0264">
        <ele>5.91</ele>
        <time>2020-08-12T07:26:32Z</time>
      </trkpt>
      <trkpt lat="47.5872" lon="-3.0264">
        <ele>6.39</ele>
        <time>2020-08-12T07:26:51Z</time>
      </trkpt>
      <trkpt lat="47.5872" lon="-3.02641">
        <ele>6.39</ele>
        <time>2020-08-12T07:26:57Z</time>
      </trkpt>
      <trkpt lat="47.58716" lon="-3.02647">
        <ele>6.87</ele>
        <time>2020-08-12T07:27:02Z</time>
      </trkpt>
      <trkpt lat="47.58706" lon="-3.02671">
        <ele>6.39</ele>
        <time>2020-08-12T07:27:16Z</time>
      </trkpt>
      <trkpt lat="47.58704" lon="-3.02678">
        <ele>6.39</ele>
        <time>2020-08-12T07:27:20Z</time>
      </trkpt>
      <trkpt lat="47.58699" lon="-3.02696">
        <ele>5.91</ele>
        <time>2020-08-12T07:27:34Z</time>
      </trkpt>
      <trkpt lat="47.58696" lon="-3.02697">
        <ele>6.39</ele>
        <time>2020-08-12T07:27:37Z</time>
      </trkpt>
      <trkpt lat="47.58676" lon="-3.02701">
        <ele>6.39</ele>
        <time>2020-08-12T07:27:54Z</time>
      </trkpt>
      <trkpt lat="47.5867" lon="-3.027">
        <ele>6.39</ele>
        <time>2020-08-12T07:28:10Z</time>
      </trkpt>
      <trkpt lat="47.58669" lon="-3.02699">
        <ele>8.31</ele>
        <time>2020-08-12T07:28:29Z</time>
      </trkpt>
      <trkpt lat="47.58666" lon="-3.02698">
        <ele>7.83</ele>
        <time>2020-08-12T07:28:50Z</time>
      </trkpt>
      <trkpt lat="47.58649" lon="-3.02695">
        <ele>7.83</ele>
        <time>2020-08-12T07:29:06Z</time>
      </trkpt>
      <trkpt lat="47.58644" lon="-3.02695">
        <ele>7.83</ele>
        <time>2020-08-12T07:29:09Z</time>
      </trkpt>
      <trkpt lat="47.58639" lon="-3.02693">
        <ele>8.31</ele>
        <time>2020-08-12T07:29:13Z</time>
      </trkpt>
      <trkpt lat="47.58614" lon="-3.02682">
        <ele>7.83</ele>
        <time>2020-08-12T07:29:30Z</time>
      </trkpt>
      <trkpt lat="47.58594" lon="-3.02675">
        <ele>8.79</ele>
        <time>2020-08-12T07:29:45Z</time>
      </trkpt>
      <trkpt lat="47.58578" lon="-3.02669">
        <ele>8.31</ele>
        <time>2020-08-12T07:29:57Z</time>
      </trkpt>
      <trkpt lat="47.5856" lon="-3.02663">
        <ele>8.31</ele>
        <time>2020-08-12T07:30:10Z</time>
      </trkpt>
      <trkpt lat="47.58547" lon="-3.02662">
        <ele>8.31</ele>
        <time>2020-08-12T07:30:26Z</time>
      </trkpt>
      <trkpt lat="47.58546" lon="-3.02662">
        <ele>8.31</ele>
        <time>2020-08-12T07:30:27Z</time>
      </trkpt>
      <trkpt lat="47.58543" lon="-3.02661">
        <ele>8.31</ele>
        <time>2020-08-12T07:30:30Z</time>
      </trkpt>
      <trkpt lat="47.58524" lon="-3.02666">
        <ele>8.79</ele>
        <time>2020-08-12T07:30:45Z</time>
      </trkpt>
      <trkpt lat="47.58522" lon="-3.02667">
        <ele>8.79</ele>
        <time>2020-08-12T07:30:47Z</time>
      </trkpt>
      <trkpt lat="47.58519" lon="-3.02669">
        <ele>8.79</ele>
        <time>2020-08-12T07:30:50Z</time>
      </trkpt>
      <trkpt lat="47.58513" lon="-3.02671">
        <ele>8.31</ele>
        <time>2020-08-12T07:30:55Z</time>
      </trkpt>
      <trkpt lat="47.58497" lon="-3.02675">
        <ele>8.31</ele>
        <time>2020-08-12T07:31:09Z</time>
      </trkpt>
      <trkpt lat="47.58495" lon="-3.02676">
        <ele>8.79</ele>
        <time>2020-08-12T07:31:11Z</time>
      </trkpt>
      <trkpt lat="47.58478" lon="-3.02678">
        <ele>8.79</ele>
        <time>2020-08-12T07:31:27Z</time>
      </trkpt>
      <trkpt lat="47.5846" lon="-3.02678">
        <ele>8.79</ele>
        <time>2020-08-12T07:31:43Z</time>
      </trkpt>
      <trkpt lat="47.58452" lon="-3.0268">
        <ele>7.83</ele>
        <time>2020-08-12T07:31:50Z</time>
      </trkpt>
      <trkpt lat="47.58441" lon="-3.02685">
        <ele>8.79</ele>
        <time>2020-08-12T07:32:01Z</time>
      </trkpt>
      <trkpt lat="47.58423" lon="-3.02688">
        <ele>10.23</ele>
        <time>2020-08-12T07:32:16Z</time>
      </trkpt>
      <trkpt lat="47.58409" lon="-3.02689">
        <ele>11.67</ele>
        <time>2020-08-12T07:32:29Z</time>
      </trkpt>
      <trkpt lat="47.584" lon="-3.02689">
        <ele>12.63</ele>
        <time>2020-08-12T07:32:39Z</time>
      </trkpt>
      <trkpt lat="47.58395" lon="-3.0269">
        <ele>12.63</ele>
        <time>2020-08-12T07:32:45Z</time>
      </trkpt>
      <trkpt lat="47.58391" lon="-3.0269">
        <ele>14.08</ele>
        <time>2020-08-12T07:32:49Z</time>
      </trkpt>
      <trkpt lat="47.58389" lon="-3.0269">
        <ele>14.08</ele>
        <time>2020-08-12T07:32:51Z</time>
      </trkpt>
      <trkpt lat="47.58377" lon="-3.02692">
        <ele>13.6</ele>
        <time>2020-08-12T07:33:04Z</time>
      </trkpt>
      <trkpt lat="47.58366" lon="-3.02691">
        <ele>13.12</ele>
        <time>2020-08-12T07:33:18Z</time>
      </trkpt>
      <trkpt lat="47.58365" lon="-3.02691">
        <ele>13.12</ele>
        <time>2020-08-12T07:33:19Z</time>
      </trkpt>
      <trkpt lat="47.58355" lon="-3.02687">
        <ele>12.15</ele>
        <time>2020-08-12T07:33:32Z</time>
      </trkpt>
      <trkpt lat="47.58347" lon="-3.02688">
        <ele>12.63</ele>
        <time>2020-08-12T07:33:40Z</time>
      </trkpt>
      <trkpt lat="47.58343" lon="-3.02686">
        <ele>12.63</ele>
        <time>2020-08-12T07:33:43Z</time>
      </trkpt>
      <trkpt lat="47.58325" lon="-3.02693">
        <ele>11.67</ele>
        <time>2020-08-12T07:33:58Z</time>
      </trkpt>
      <trkpt lat="47.58312" lon="-3.02698">
        <ele>12.15</ele>
        <time>2020-08-12T07:34:14Z</time>
      </trkpt>
      <trkpt lat="47.58301" lon="-3.02699">
        <ele>11.67</ele>
        <time>2020-08-12T07:34:24Z</time>
      </trkpt>
      <trkpt lat="47.58286" lon="-3.02696">
        <ele>12.15</ele>
        <time>2020-08-12T07:34:38Z</time>
      </trkpt>
      <trkpt lat="47.58268" lon="-3.02699">
        <ele>11.67</ele>
        <time>2020-08-12T07:34:53Z</time>
      </trkpt>
      <trkpt lat="47.58263" lon="-3.027">
        <ele>11.67</ele>
        <time>2020-08-12T07:34:58Z</time>
      </trkpt>
      <trkpt lat="47.58258" lon="-3.02701">
        <ele>12.15</ele>
        <time>2020-08-12T07:35:02Z</time>
      </trkpt>
      <trkpt lat="47.5825" lon="-3.027">
        <ele>12.15</ele>
        <time>2020-08-12T07:35:10Z</time>
      </trkpt>
      <trkpt lat="47.58245" lon="-3.027">
        <ele>12.63</ele>
        <time>2020-08-12T07:35:14Z</time>
      </trkpt>
      <trkpt lat="47.58227" lon="-3.02694">
        <ele>13.6</ele>
        <time>2020-08-12T07:35:30Z</time>
      </trkpt>
      <trkpt lat="47.58224" lon="-3.02696">
        <ele>13.6</ele>
        <time>2020-08-12T07:35:33Z</time>
      </trkpt>
      <trkpt lat="47.5822" lon="-3.02696">
        <ele>14.08</ele>
        <time>2020-08-12T07:35:36Z</time>
      </trkpt>
      <trkpt lat="47.58203" lon="-3.02685">
        <ele>14.08</ele>
        <time>2020-08-12T07:35:52Z</time>
      </trkpt>
      <trkpt lat="47.58191" lon="-3.02672">
        <ele>14.08</ele>
        <time>2020-08-12T07:36:06Z</time>
      </trkpt>
      <trkpt lat="47.58182" lon="-3.02665">
        <ele>12.63</ele>
        <time>2020-08-12T07:36:13Z</time>
      </trkpt>
      <trkpt lat="47.58177" lon="-3.02658">
        <ele>12.63</ele>
        <time>2020-08-12T07:36:20Z</time>
      </trkpt>
      <trkpt lat="47.58168" lon="-3.0265">
        <ele>12.63</ele>
        <time>2020-08-12T07:36:29Z</time>
      </trkpt>
      <trkpt lat="47.58166" lon="-3.02648">
        <ele>12.63</ele>
        <time>2020-08-12T07:36:31Z</time>
      </trkpt>
      <trkpt lat="47.58152" lon="-3.02641">
        <ele>12.15</ele>
        <time>2020-08-12T07:36:45Z</time>
      </trkpt>
      <trkpt lat="47.5815" lon="-3.02641">
        <ele>12.63</ele>
        <time>2020-08-12T07:36:47Z</time>
      </trkpt>
      <trkpt lat="47.58143" lon="-3.02637">
        <ele>12.63</ele>
        <time>2020-08-12T07:36:52Z</time>
      </trkpt>
      <trkpt lat="47.5814" lon="-3.02635">
        <ele>12.63</ele>
        <time>2020-08-12T07:36:55Z</time>
      </trkpt>
      <trkpt lat="47.58128" lon="-3.0263">
        <ele>12.63</ele>
        <time>2020-08-12T07:37:06Z</time>
      </trkpt>
      <trkpt lat="47.58121" lon="-3.02624">
        <ele>11.67</ele>
        <time>2020-08-12T07:37:13Z</time>
      </trkpt>
      <trkpt lat="47.58105" lon="-3.02606">
        <ele>12.15</ele>
        <time>2020-08-12T07:37:29Z</time>
      </trkpt>
      <trkpt lat="47.58099" lon="-3.02596">
        <ele>11.67</ele>
        <time>2020-08-12T07:37:37Z</time>
      </trkpt>
      <trkpt lat="47.58086" lon="-3.02573">
        <ele>11.19</ele>
        <time>2020-08-12T07:37:52Z</time>
      </trkpt>
      <trkpt lat="47.58081" lon="-3.02562">
        <ele>10.23</ele>
        <time>2020-08-12T07:38:01Z</time>
      </trkpt>
      <trkpt lat="47.58081" lon="-3.02545">
        <ele>8.79</ele>
        <time>2020-08-12T07:38:13Z</time>
      </trkpt>
      <trkpt lat="47.58075" lon="-3.02525">
        <ele>8.79</ele>
        <time>2020-08-12T07:38:25Z</time>
      </trkpt>
      <trkpt lat="47.58065" lon="-3.02511">
        <ele>9.27</ele>
        <time>2020-08-12T07:38:36Z</time>
      </trkpt>
      <trkpt lat="47.58054" lon="-3.02496">
        <ele>8.79</ele>
        <time>2020-08-12T07:38:51Z</time>
      </trkpt>
      <trkpt lat="47.58043" lon="-3.02478">
        <ele>8.79</ele>
        <time>2020-08-12T07:39:04Z</time>
      </trkpt>
      <trkpt lat="47.58031" lon="-3.02455">
        <ele>8.79</ele>
        <time>2020-08-12T07:39:20Z</time>
      </trkpt>
      <trkpt lat="47.58028" lon="-3.02452">
        <ele>8.79</ele>
        <time>2020-08-12T07:39:23Z</time>
      </trkpt>
      <trkpt lat="47.58015" lon="-3.02429">
        <ele>8.79</ele>
        <time>2020-08-12T07:39:39Z</time>
      </trkpt>
      <trkpt lat="47.58006" lon="-3.02409">
        <ele>8.31</ele>
        <time>2020-08-12T07:39:53Z</time>
      </trkpt>
      <trkpt lat="47.58005" lon="-3.02406">
        <ele>8.31</ele>
        <time>2020-08-12T07:39:56Z</time>
      </trkpt>
      <trkpt lat="47.58" lon="-3.02389">
        <ele>8.31</ele>
        <time>2020-08-12T07:40:07Z</time>
      </trkpt>
      <trkpt lat="47.57997" lon="-3.02384">
        <ele>8.31</ele>
        <time>2020-08-12T07:40:11Z</time>
      </trkpt>
      <trkpt lat="47.57985" lon="-3.02356">
        <ele>8.31</ele>
        <time>2020-08-12T07:40:26Z</time>
      </trkpt>
      <trkpt lat="47.57984" lon="-3.02351">
        <ele>8.31</ele>
        <time>2020-08-12T07:40:29Z</time>
      </trkpt>
      <trkpt lat="47.57979" lon="-3.02336">
        <ele>7.83</ele>
        <time>2020-08-12T07:40:37Z</time>
      </trkpt>
      <trkpt lat="47.57971" lon="-3.02309">
        <ele>8.31</ele>
        <time>2020-08-12T07:40:52Z</time>
      </trkpt>
      <trkpt lat="47.57963" lon="-3.0229">
        <ele>8.31</ele>
        <time>2020-08-12T07:41:04Z</time>
      </trkpt>
      <trkpt lat="47.57958" lon="-3.02285">
        <ele>8.31</ele>
        <time>2020-08-12T07:41:08Z</time>
      </trkpt>
      <trkpt lat="47.5795" lon="-3.0227">
        <ele>8.31</ele>
        <time>2020-08-12T07:41:18Z</time>
      </trkpt>
      <trkpt lat="47.57949" lon="-3.0226">
        <ele>8.79</ele>
        <time>2020-08-12T07:41:24Z</time>
      </trkpt>
      <trkpt lat="47.57947" lon="-3.02253">
        <ele>9.27</ele>
        <time>2020-08-12T07:41:28Z</time>
      </trkpt>
      <trkpt lat="47.5794" lon="-3.02235">
        <ele>9.27</ele>
        <time>2020-08-12T07:41:41Z</time>
      </trkpt>
      <trkpt lat="47.57924" lon="-3.02225">
        <ele>9.27</ele>
        <time>2020-08-12T07:41:56Z</time>
      </trkpt>
      <trkpt lat="47.57923" lon="-3.02225">
        <ele>9.27</ele>
        <time>2020-08-12T07:41:57Z</time>
      </trkpt>
      <trkpt lat="47.57901" lon="-3.02225">
        <ele>9.27</ele>
        <time>2020-08-12T07:42:15Z</time>
      </trkpt>
      <trkpt lat="47.57886" lon="-3.02236">
        <ele>10.23</ele>
        <time>2020-08-12T07:42:31Z</time>
      </trkpt>
      <trkpt lat="47.57871" lon="-3.02251">
        <ele>10.71</ele>
        <time>2020-08-12T07:42:46Z</time>
      </trkpt>
      <trkpt lat="47.57858" lon="-3.02268">
        <ele>10.71</ele>
        <time>2020-08-12T07:43:00Z</time>
      </trkpt>
      <trkpt lat="47.57844" lon="-3.0229">
        <ele>12.15</ele>
        <time>2020-08-12T07:43:17Z</time>
      </trkpt>
      <trkpt lat="47.5783" lon="-3.02301">
        <ele>13.12</ele>
        <time>2020-08-12T07:43:32Z</time>
      </trkpt>
      <trkpt lat="47.57817" lon="-3.02311">
        <ele>13.6</ele>
        <time>2020-08-12T07:43:47Z</time>
      </trkpt>
      <trkpt lat="47.57815" lon="-3.02313">
        <ele>13.6</ele>
        <time>2020-08-12T07:43:49Z</time>
      </trkpt>
      <trkpt lat="47.57813" lon="-3.02315">
        <ele>13.6</ele>
        <time>2020-08-12T07:43:51Z</time>
      </trkpt>
      <trkpt lat="47.578" lon="-3.02322">
        <ele>14.08</ele>
        <time>2020-08-12T07:44:04Z</time>
      </trkpt>
      <trkpt lat="47.57777" lon="-3.02323">
        <ele>12.15</ele>
        <time>2020-08-12T07:44:21Z</time>
      </trkpt>
      <trkpt lat="47.57773" lon="-3.02324">
        <ele>12.15</ele>
        <time>2020-08-12T07:44:23Z</time>
      </trkpt>
      <trkpt lat="47.57756" lon="-3.02334">
        <ele>11.19</ele>
        <time>2020-08-12T07:44:38Z</time>
      </trkpt>
      <trkpt lat="47.57735" lon="-3.02327">
        <ele>11.67</ele>
        <time>2020-08-12T07:44:53Z</time>
      </trkpt>
      <trkpt lat="47.57731" lon="-3.02326">
        <ele>11.67</ele>
        <time>2020-08-12T07:44:56Z</time>
      </trkpt>
      <trkpt lat="47.5772" lon="-3.02329">
        <ele>13.12</ele>
        <time>2020-08-12T07:45:11Z</time>
      </trkpt>
      <trkpt lat="47.57713" lon="-3.02329">
        <ele>14.08</ele>
        <time>2020-08-12T07:45:18Z</time>
      </trkpt>
      <trkpt lat="47.57696" lon="-3.0233">
        <ele>14.56</ele>
        <time>2020-08-12T07:45:31Z</time>
      </trkpt>
      <trkpt lat="47.57691" lon="-3.02327">
        <ele>14.56</ele>
        <time>2020-08-12T07:45:46Z</time>
      </trkpt>
      <trkpt lat="47.57691" lon="-3.02328">
        <ele>14.56</ele>
        <time>2020-08-12T07:46:17Z</time>
      </trkpt>
      <trkpt lat="47.5769" lon="-3.02329">
        <ele>14.08</ele>
        <time>2020-08-12T07:46:46Z</time>
      </trkpt>
      <trkpt lat="47.57689" lon="-3.02328">
        <ele>14.08</ele>
        <time>2020-08-12T07:47:10Z</time>
      </trkpt>
      <trkpt lat="47.57687" lon="-3.02329">
        <ele>14.56</ele>
        <time>2020-08-12T07:47:22Z</time>
      </trkpt>
      <trkpt lat="47.57683" lon="-3.02327">
        <ele>13.6</ele>
        <time>2020-08-12T07:47:35Z</time>
      </trkpt>
      <trkpt lat="47.57669" lon="-3.02328">
        <ele>14.08</ele>
        <time>2020-08-12T07:47:52Z</time>
      </trkpt>
      <trkpt lat="47.57655" lon="-3.02326">
        <ele>14.56</ele>
        <time>2020-08-12T07:48:05Z</time>
      </trkpt>
      <trkpt lat="47.57633" lon="-3.02319">
        <ele>13.6</ele>
        <time>2020-08-12T07:48:20Z</time>
      </trkpt>
      <trkpt lat="47.57613" lon="-3.02311">
        <ele>12.63</ele>
        <time>2020-08-12T07:48:35Z</time>
      </trkpt>
      <trkpt lat="47.57605" lon="-3.02308">
        <ele>10.71</ele>
        <time>2020-08-12T07:48:45Z</time>
      </trkpt>
      <trkpt lat="47.57589" lon="-3.02308">
        <ele>10.23</ele>
        <time>2020-08-12T07:48:58Z</time>
      </trkpt>
      <trkpt lat="47.57586" lon="-3.02308">
        <ele>9.75</ele>
        <time>2020-08-12T07:49:01Z</time>
      </trkpt>
      <trkpt lat="47.57571" lon="-3.02301">
        <ele>8.79</ele>
        <time>2020-08-12T07:49:14Z</time>
      </trkpt>
      <trkpt lat="47.57568" lon="-3.02295">
        <ele>8.31</ele>
        <time>2020-08-12T07:49:21Z</time>
      </trkpt>
      <trkpt lat="47.57564" lon="-3.02287">
        <ele>8.79</ele>
        <time>2020-08-12T07:49:25Z</time>
      </trkpt>
      <trkpt lat="47.57556" lon="-3.02276">
        <ele>8.79</ele>
        <time>2020-08-12T07:49:33Z</time>
      </trkpt>
      <trkpt lat="47.57552" lon="-3.02265">
        <ele>8.79</ele>
        <time>2020-08-12T07:49:43Z</time>
      </trkpt>
      <trkpt lat="47.5754" lon="-3.02263">
        <ele>9.27</ele>
        <time>2020-08-12T07:50:00Z</time>
      </trkpt>
      <trkpt lat="47.57528" lon="-3.02263">
        <ele>10.23</ele>
        <time>2020-08-12T07:50:16Z</time>
      </trkpt>
      <trkpt lat="47.57513" lon="-3.02258">
        <ele>10.23</ele>
        <time>2020-08-12T07:50:31Z</time>
      </trkpt>
      <trkpt lat="47.57491" lon="-3.0226">
        <ele>10.71</ele>
        <time>2020-08-12T07:50:47Z</time>
      </trkpt>
      <trkpt lat="47.57473" lon="-3.02274">
        <ele>10.23</ele>
        <time>2020-08-12T07:51:04Z</time>
      </trkpt>
      <trkpt lat="47.57471" lon="-3.02275">
        <ele>10.23</ele>
        <time>2020-08-12T07:51:06Z</time>
      </trkpt>
      <trkpt lat="47.57453" lon="-3.02296">
        <ele>9.75</ele>
        <time>2020-08-12T07:51:24Z</time>
      </trkpt>
      <trkpt lat="47.57439" lon="-3.0231">
        <ele>9.75</ele>
        <time>2020-08-12T07:51:40Z</time>
      </trkpt>
      <trkpt lat="47.57424" lon="-3.0232">
        <ele>9.27</ele>
        <time>2020-08-12T07:51:56Z</time>
      </trkpt>
      <trkpt lat="47.5741" lon="-3.02328">
        <ele>9.27</ele>
        <time>2020-08-12T07:52:11Z</time>
      </trkpt>
      <trkpt lat="47.57399" lon="-3.02331">
        <ele>9.27</ele>
        <time>2020-08-12T07:52:21Z</time>
      </trkpt>
      <trkpt lat="47.57392" lon="-3.02334">
        <ele>9.27</ele>
        <time>2020-08-12T07:52:26Z</time>
      </trkpt>
      <trkpt lat="47.57373" lon="-3.02342">
        <ele>8.79</ele>
        <time>2020-08-12T07:52:44Z</time>
      </trkpt>
      <trkpt lat="47.57372" lon="-3.02342">
        <ele>8.79</ele>
        <time>2020-08-12T07:52:45Z</time>
      </trkpt>
      <trkpt lat="47.5736" lon="-3.02349">
        <ele>8.79</ele>
        <time>2020-08-12T07:52:58Z</time>
      </trkpt>
      <trkpt lat="47.57355" lon="-3.02356">
        <ele>7.83</ele>
        <time>2020-08-12T07:53:11Z</time>
      </trkpt>
      <trkpt lat="47.57351" lon="-3.0236">
        <ele>7.83</ele>
        <time>2020-08-12T07:53:27Z</time>
      </trkpt>
      <trkpt lat="47.57347" lon="-3.02358">
        <ele>8.31</ele>
        <time>2020-08-12T07:53:34Z</time>
      </trkpt>
      <trkpt lat="47.57341" lon="-3.02358">
        <ele>8.31</ele>
        <time>2020-08-12T07:53:38Z</time>
      </trkpt>
      <trkpt lat="47.5733" lon="-3.02356">
        <ele>8.31</ele>
        <time>2020-08-12T07:53:42Z</time>
      </trkpt>
      <trkpt lat="47.57304" lon="-3.02351">
        <ele>8.31</ele>
        <time>2020-08-12T07:53:57Z</time>
      </trkpt>
      <trkpt lat="47.573" lon="-3.02348">
        <ele>7.83</ele>
        <time>2020-08-12T07:54:01Z</time>
      </trkpt>
      <trkpt lat="47.57288" lon="-3.02335">
        <ele>7.83</ele>
        <time>2020-08-12T07:54:14Z</time>
      </trkpt>
      <trkpt lat="47.57285" lon="-3.02333">
        <ele>7.83</ele>
        <time>2020-08-12T07:54:16Z</time>
      </trkpt>
      <trkpt lat="47.57282" lon="-3.02332">
        <ele>7.83</ele>
        <time>2020-08-12T07:54:18Z</time>
      </trkpt>
      <trkpt lat="47.57271" lon="-3.02318">
        <ele>8.31</ele>
        <time>2020-08-12T07:54:31Z</time>
      </trkpt>
      <trkpt lat="47.57259" lon="-3.02305">
        <ele>9.27</ele>
        <time>2020-08-12T07:54:46Z</time>
      </trkpt>
      <trkpt lat="47.57256" lon="-3.02302">
        <ele>9.27</ele>
        <time>2020-08-12T07:54:50Z</time>
      </trkpt>
      <trkpt lat="47.57248" lon="-3.02292">
        <ele>9.27</ele>
        <time>2020-08-12T07:54:59Z</time>
      </trkpt>
      <trkpt lat="47.57236" lon="-3.02277">
        <ele>10.23</ele>
        <time>2020-08-12T07:55:13Z</time>
      </trkpt>
      <trkpt lat="47.57234" lon="-3.0227">
        <ele>9.75</ele>
        <time>2020-08-12T07:55:18Z</time>
      </trkpt>
      <trkpt lat="47.5724" lon="-3.02257">
        <ele>9.75</ele>
        <time>2020-08-12T07:55:27Z</time>
      </trkpt>
      <trkpt lat="47.57243" lon="-3.02256">
        <ele>9.27</ele>
        <time>2020-08-12T07:55:32Z</time>
      </trkpt>
      <trkpt lat="47.57255" lon="-3.0225">
        <ele>9.27</ele>
        <time>2020-08-12T07:55:45Z</time>
      </trkpt>
      <trkpt lat="47.57255" lon="-3.02231">
        <ele>8.79</ele>
        <time>2020-08-12T07:55:57Z</time>
      </trkpt>
      <trkpt lat="47.57254" lon="-3.02229">
        <ele>9.27</ele>
        <time>2020-08-12T07:55:59Z</time>
      </trkpt>
      <trkpt lat="47.57237" lon="-3.02223">
        <ele>9.75</ele>
        <time>2020-08-12T07:56:15Z</time>
      </trkpt>
      <trkpt lat="47.57232" lon="-3.02221">
        <ele>9.27</ele>
        <time>2020-08-12T07:56:20Z</time>
      </trkpt>
      <trkpt lat="47.57221" lon="-3.02218">
        <ele>9.75</ele>
        <time>2020-08-12T07:56:29Z</time>
      </trkpt>
      <trkpt lat="47.57204" lon="-3.02209">
        <ele>8.79</ele>
        <time>2020-08-12T07:56:46Z</time>
      </trkpt>
      <trkpt lat="47.57202" lon="-3.02208">
        <ele>9.27</ele>
        <time>2020-08-12T07:56:48Z</time>
      </trkpt>
      <trkpt lat="47.57195" lon="-3.02203">
        <ele>8.79</ele>
        <time>2020-08-12T07:56:55Z</time>
      </trkpt>
      <trkpt lat="47.57183" lon="-3.02193">
        <ele>8.79</ele>
        <time>2020-08-12T07:57:08Z</time>
      </trkpt>
      <trkpt lat="47.5718" lon="-3.02192">
        <ele>8.31</ele>
        <time>2020-08-12T07:57:10Z</time>
      </trkpt>
      <trkpt lat="47.57176" lon="-3.02184">
        <ele>8.31</ele>
        <time>2020-08-12T07:57:16Z</time>
      </trkpt>
      <trkpt lat="47.57164" lon="-3.02163">
        <ele>8.31</ele>
        <time>2020-08-12T07:57:30Z</time>
      </trkpt>
      <trkpt lat="47.57158" lon="-3.02148">
        <ele>7.83</ele>
        <time>2020-08-12T07:57:40Z</time>
      </trkpt>
      <trkpt lat="47.57154" lon="-3.02137">
        <ele>8.31</ele>
        <time>2020-08-12T07:57:48Z</time>
      </trkpt>
      <trkpt lat="47.57149" lon="-3.02134">
        <ele>8.79</ele>
        <time>2020-08-12T07:57:54Z</time>
      </trkpt>
      <trkpt lat="47.57146" lon="-3.02132">
        <ele>8.31</ele>
        <time>2020-08-12T07:57:57Z</time>
      </trkpt>
      <trkpt lat="47.57142" lon="-3.0212">
        <ele>8.79</ele>
        <time>2020-08-12T07:58:12Z</time>
      </trkpt>
      <trkpt lat="47.57139" lon="-3.0212">
        <ele>7.83</ele>
        <time>2020-08-12T07:58:28Z</time>
      </trkpt>
      <trkpt lat="47.57139" lon="-3.0212">
        <ele>8.31</ele>
        <time>2020-08-12T07:58:58Z</time>
      </trkpt>
      <trkpt lat="47.57136" lon="-3.02113">
        <ele>8.31</ele>
        <time>2020-08-12T07:59:08Z</time>
      </trkpt>
      <trkpt lat="47.57134" lon="-3.02108">
        <ele>7.83</ele>
        <time>2020-08-12T07:59:12Z</time>
      </trkpt>
      <trkpt lat="47.57127" lon="-3.0209">
        <ele>8.31</ele>
        <time>2020-08-12T07:59:26Z</time>
      </trkpt>
      <trkpt lat="47.57122" lon="-3.02073">
        <ele>8.31</ele>
        <time>2020-08-12T07:59:40Z</time>
      </trkpt>
      <trkpt lat="47.57113" lon="-3.0205">
        <ele>8.31</ele>
        <time>2020-08-12T07:59:57Z</time>
      </trkpt>
      <trkpt lat="47.57107" lon="-3.02042">
        <ele>7.83</ele>
        <time>2020-08-12T08:00:06Z</time>
      </trkpt>
      <trkpt lat="47.57103" lon="-3.02035">
        <ele>7.83</ele>
        <time>2020-08-12T08:00:12Z</time>
      </trkpt>
      <trkpt lat="47.57091" lon="-3.02025">
        <ele>7.83</ele>
        <time>2020-08-12T08:00:27Z</time>
      </trkpt>
      <trkpt lat="47.57079" lon="-3.02013">
        <ele>8.31</ele>
        <time>2020-08-12T08:00:43Z</time>
      </trkpt>
      <trkpt lat="47.57065" lon="-3.02004">
        <ele>9.27</ele>
        <time>2020-08-12T08:00:56Z</time>
      </trkpt>
      <trkpt lat="47.57053" lon="-3.01994">
        <ele>9.27</ele>
        <time>2020-08-12T08:01:09Z</time>
      </trkpt>
      <trkpt lat="47.57053" lon="-3.01994">
        <ele>9.27</ele>
        <time>2020-08-12T08:01:10Z</time>
      </trkpt>
      <trkpt lat="47.5705" lon="-3.01991">
        <ele>8.79</ele>
        <time>2020-08-12T08:01:13Z</time>
      </trkpt>
      <trkpt lat="47.57033" lon="-3.01977">
        <ele>8.31</ele>
        <time>2020-08-12T08:01:28Z</time>
      </trkpt>
      <trkpt lat="47.57029" lon="-3.01974">
        <ele>7.83</ele>
        <time>2020-08-12T08:01:32Z</time>
      </trkpt>
      <trkpt lat="47.57013" lon="-3.01971">
        <ele>8.31</ele>
        <time>2020-08-12T08:01:47Z</time>
      </trkpt>
      <trkpt lat="47.57012" lon="-3.01971">
        <ele>8.31</ele>
        <time>2020-08-12T08:01:48Z</time>
      </trkpt>
      <trkpt lat="47.56997" lon="-3.01958">
        <ele>7.83</ele>
        <time>2020-08-12T08:02:04Z</time>
      </trkpt>
      <trkpt lat="47.56984" lon="-3.01948">
        <ele>7.35</ele>
        <time>2020-08-12T08:02:18Z</time>
      </trkpt>
      <trkpt lat="47.56966" lon="-3.01945">
        <ele>8.31</ele>
        <time>2020-08-12T08:02:36Z</time>
      </trkpt>
      <trkpt lat="47.56965" lon="-3.01945">
        <ele>8.31</ele>
        <time>2020-08-12T08:02:37Z</time>
      </trkpt>
      <trkpt lat="47.56946" lon="-3.01942">
        <ele>7.83</ele>
        <time>2020-08-12T08:02:54Z</time>
      </trkpt>
      <trkpt lat="47.56934" lon="-3.01942">
        <ele>8.31</ele>
        <time>2020-08-12T08:03:05Z</time>
      </trkpt>
      <trkpt lat="47.5693" lon="-3.0194">
        <ele>8.31</ele>
        <time>2020-08-12T08:03:09Z</time>
      </trkpt>
      <trkpt lat="47.56911" lon="-3.0193">
        <ele>7.83</ele>
        <time>2020-08-12T08:03:28Z</time>
      </trkpt>
      <trkpt lat="47.56894" lon="-3.01916">
        <ele>7.35</ele>
        <time>2020-08-12T08:03:44Z</time>
      </trkpt>
      <trkpt lat="47.5689" lon="-3.01912">
        <ele>7.35</ele>
        <time>2020-08-12T08:03:49Z</time>
      </trkpt>
      <trkpt lat="47.56873" lon="-3.01907">
        <ele>7.83</ele>
        <time>2020-08-12T08:04:06Z</time>
      </trkpt>
      <trkpt lat="47.56866" lon="-3.0191">
        <ele>7.35</ele>
        <time>2020-08-12T08:04:12Z</time>
      </trkpt>
      <trkpt lat="47.5685" lon="-3.01925">
        <ele>7.35</ele>
        <time>2020-08-12T08:04:29Z</time>
      </trkpt>
      <trkpt lat="47.56836" lon="-3.0194">
        <ele>8.31</ele>
        <time>2020-08-12T08:04:45Z</time>
      </trkpt>
      <trkpt lat="47.56828" lon="-3.0195">
        <ele>7.83</ele>
        <time>2020-08-12T08:04:58Z</time>
      </trkpt>
      <trkpt lat="47.56816" lon="-3.01942">
        <ele>6.87</ele>
        <time>2020-08-12T08:05:14Z</time>
      </trkpt>
      <trkpt lat="47.56807" lon="-3.01946">
        <ele>6.87</ele>
        <time>2020-08-12T08:05:26Z</time>
      </trkpt>
      <trkpt lat="47.56799" lon="-3.01952">
        <ele>6.87</ele>
        <time>2020-08-12T08:05:35Z</time>
      </trkpt>
      <trkpt lat="47.56786" lon="-3.0197">
        <ele>6.87</ele>
        <time>2020-08-12T08:05:51Z</time>
      </trkpt>
      <trkpt lat="47.56787" lon="-3.01975">
        <ele>6.87</ele>
        <time>2020-08-12T08:06:07Z</time>
      </trkpt>
      <trkpt lat="47.56785" lon="-3.01975">
        <ele>6.87</ele>
        <time>2020-08-12T08:06:27Z</time>
      </trkpt>
      <trkpt lat="47.56785" lon="-3.01973">
        <ele>6.87</ele>
        <time>2020-08-12T08:06:45Z</time>
      </trkpt>
      <trkpt lat="47.56785" lon="-3.01972">
        <ele>6.87</ele>
        <time>2020-08-12T08:07:05Z</time>
      </trkpt>
      <trkpt lat="47.56787" lon="-3.01975">
        <ele>6.87</ele>
        <time>2020-08-12T08:07:32Z</time>
      </trkpt>
      <trkpt lat="47.56787" lon="-3.01977">
        <ele>6.87</ele>
        <time>2020-08-12T08:07:57Z</time>
      </trkpt>
      <trkpt lat="47.56787" lon="-3.01983">
        <ele>7.35</ele>
        <time>2020-08-12T08:08:15Z</time>
      </trkpt>
      <trkpt lat="47.56782" lon="-3.01989">
        <ele>7.35</ele>
        <time>2020-08-12T08:08:29Z</time>
      </trkpt>
      <trkpt lat="47.56782" lon="-3.01993">
        <ele>7.35</ele>
        <time>2020-08-12T08:08:44Z</time>
      </trkpt>
      <trkpt lat="47.56781" lon="-3.01994">
        <ele>6.87</ele>
        <time>2020-08-12T08:09:04Z</time>
      </trkpt>
      <trkpt lat="47.5678" lon="-3.01995">
        <ele>6.87</ele>
        <time>2020-08-12T08:09:28Z</time>
      </trkpt>
      <trkpt lat="47.56779" lon="-3.01998">
        <ele>6.87</ele>
        <time>2020-08-12T08:09:42Z</time>
      </trkpt>
      <trkpt lat="47.56781" lon="-3.02002">
        <ele>7.35</ele>
        <time>2020-08-12T08:09:53Z</time>
      </trkpt>
      <trkpt lat="47.56785" lon="-3.02019">
        <ele>7.35</ele>
        <time>2020-08-12T08:10:08Z</time>
      </trkpt>
      <trkpt lat="47.5679" lon="-3.02032">
        <ele>7.35</ele>
        <time>2020-08-12T08:10:23Z</time>
      </trkpt>
      <trkpt lat="47.5679" lon="-3.0205">
        <ele>7.35</ele>
        <time>2020-08-12T08:10:38Z</time>
      </trkpt>
      <trkpt lat="47.56797" lon="-3.02066">
        <ele>6.87</ele>
        <time>2020-08-12T08:10:53Z</time>
      </trkpt>
      <trkpt lat="47.568" lon="-3.02084">
        <ele>7.83</ele>
        <time>2020-08-12T08:11:11Z</time>
      </trkpt>
      <trkpt lat="47.56803" lon="-3.02093">
        <ele>7.83</ele>
        <time>2020-08-12T08:11:19Z</time>
      </trkpt>
      <trkpt lat="47.56809" lon="-3.02119">
        <ele>7.35</ele>
        <time>2020-08-12T08:11:34Z</time>
      </trkpt>
      <trkpt lat="47.56811" lon="-3.02137">
        <ele>6.39</ele>
        <time>2020-08-12T08:11:50Z</time>
      </trkpt>
      <trkpt lat="47.5681" lon="-3.02154">
        <ele>6.87</ele>
        <time>2020-08-12T08:12:03Z</time>
      </trkpt>
      <trkpt lat="47.56808" lon="-3.02181">
        <ele>6.39</ele>
        <time>2020-08-12T08:12:20Z</time>
      </trkpt>
      <trkpt lat="47.56808" lon="-3.02197">
        <ele>5.91</ele>
        <time>2020-08-12T08:12:37Z</time>
      </trkpt>
      <trkpt lat="47.56802" lon="-3.0222">
        <ele>5.42</ele>
        <time>2020-08-12T08:12:50Z</time>
      </trkpt>
      <trkpt lat="47.56798" lon="-3.02234">
        <ele>5.91</ele>
        <time>2020-08-12T08:12:58Z</time>
      </trkpt>
      <trkpt lat="47.56789" lon="-3.02252">
        <ele>5.91</ele>
        <time>2020-08-12T08:13:12Z</time>
      </trkpt>
      <trkpt lat="47.56781" lon="-3.02271">
        <ele>6.39</ele>
        <time>2020-08-12T08:13:26Z</time>
      </trkpt>
      <trkpt lat="47.56771" lon="-3.02289">
        <ele>6.39</ele>
        <time>2020-08-12T08:13:40Z</time>
      </trkpt>
      <trkpt lat="47.56762" lon="-3.02309">
        <ele>5.91</ele>
        <time>2020-08-12T08:13:56Z</time>
      </trkpt>
      <trkpt lat="47.56762" lon="-3.02311">
        <ele>5.42</ele>
        <time>2020-08-12T08:13:57Z</time>
      </trkpt>
      <trkpt lat="47.56766" lon="-3.0233">
        <ele>6.39</ele>
        <time>2020-08-12T08:14:10Z</time>
      </trkpt>
      <trkpt lat="47.56767" lon="-3.02332">
        <ele>6.39</ele>
        <time>2020-08-12T08:14:12Z</time>
      </trkpt>
      <trkpt lat="47.56773" lon="-3.02352">
        <ele>5.91</ele>
        <time>2020-08-12T08:14:25Z</time>
      </trkpt>
      <trkpt lat="47.5678" lon="-3.02362">
        <ele>5.91</ele>
        <time>2020-08-12T08:14:34Z</time>
      </trkpt>
      <trkpt lat="47.56785" lon="-3.02365">
        <ele>6.39</ele>
        <time>2020-08-12T08:14:40Z</time>
      </trkpt>
      <trkpt lat="47.56793" lon="-3.02373">
        <ele>6.87</ele>
        <time>2020-08-12T08:14:52Z</time>
      </trkpt>
      <trkpt lat="47.56796" lon="-3.02375">
        <ele>6.39</ele>
        <time>2020-08-12T08:14:56Z</time>
      </trkpt>
      <trkpt lat="47.568" lon="-3.02378">
        <ele>6.39</ele>
        <time>2020-08-12T08:15:00Z</time>
      </trkpt>
      <trkpt lat="47.56811" lon="-3.02393">
        <ele>6.87</ele>
        <time>2020-08-12T08:15:13Z</time>
      </trkpt>
      <trkpt lat="47.56815" lon="-3.02404">
        <ele>6.39</ele>
        <time>2020-08-12T08:15:21Z</time>
      </trkpt>
      <trkpt lat="47.56819" lon="-3.02427">
        <ele>6.39</ele>
        <time>2020-08-12T08:15:36Z</time>
      </trkpt>
      <trkpt lat="47.56818" lon="-3.02431">
        <ele>5.91</ele>
        <time>2020-08-12T08:15:39Z</time>
      </trkpt>
      <trkpt lat="47.56822" lon="-3.02449">
        <ele>6.87</ele>
        <time>2020-08-12T08:15:51Z</time>
      </trkpt>
      <trkpt lat="47.56825" lon="-3.02464">
        <ele>6.87</ele>
        <time>2020-08-12T08:16:02Z</time>
      </trkpt>
      <trkpt lat="47.56833" lon="-3.02485">
        <ele>7.35</ele>
        <time>2020-08-12T08:16:18Z</time>
      </trkpt>
      <trkpt lat="47.56835" lon="-3.02491">
        <ele>6.87</ele>
        <time>2020-08-12T08:16:23Z</time>
      </trkpt>
      <trkpt lat="47.56836" lon="-3.02494">
        <ele>6.87</ele>
        <time>2020-08-12T08:16:25Z</time>
      </trkpt>
      <trkpt lat="47.5685" lon="-3.02506">
        <ele>6.39</ele>
        <time>2020-08-12T08:16:39Z</time>
      </trkpt>
      <trkpt lat="47.56852" lon="-3.02506">
        <ele>6.39</ele>
        <time>2020-08-12T08:16:41Z</time>
      </trkpt>
      <trkpt lat="47.56854" lon="-3.02509">
        <ele>6.87</ele>
        <time>2020-08-12T08:16:44Z</time>
      </trkpt>
      <trkpt lat="47.56865" lon="-3.02514">
        <ele>6.39</ele>
        <time>2020-08-12T08:16:55Z</time>
      </trkpt>
      <trkpt lat="47.56872" lon="-3.02512">
        <ele>5.91</ele>
        <time>2020-08-12T08:17:03Z</time>
      </trkpt>
      <trkpt lat="47.56888" lon="-3.02519">
        <ele>5.42</ele>
        <time>2020-08-12T08:17:17Z</time>
      </trkpt>
      <trkpt lat="47.56899" lon="-3.02517">
        <ele>5.91</ele>
        <time>2020-08-12T08:17:27Z</time>
      </trkpt>
      <trkpt lat="47.56905" lon="-3.02524">
        <ele>5.91</ele>
        <time>2020-08-12T08:17:35Z</time>
      </trkpt>
      <trkpt lat="47.56911" lon="-3.02529">
        <ele>5.91</ele>
        <time>2020-08-12T08:17:41Z</time>
      </trkpt>
      <trkpt lat="47.56925" lon="-3.02545">
        <ele>6.39</ele>
        <time>2020-08-12T08:17:57Z</time>
      </trkpt>
      <trkpt lat="47.5693" lon="-3.02551">
        <ele>6.87</ele>
        <time>2020-08-12T08:18:04Z</time>
      </trkpt>
      <trkpt lat="47.56931" lon="-3.02554">
        <ele>7.35</ele>
        <time>2020-08-12T08:18:06Z</time>
      </trkpt>
      <trkpt lat="47.56932" lon="-3.02555">
        <ele>6.87</ele>
        <time>2020-08-12T08:18:26Z</time>
      </trkpt>
      <trkpt lat="47.56933" lon="-3.02555">
        <ele>7.35</ele>
        <time>2020-08-12T08:18:45Z</time>
      </trkpt>
      <trkpt lat="47.56933" lon="-3.02556">
        <ele>7.35</ele>
        <time>2020-08-12T08:19:00Z</time>
      </trkpt>
      <trkpt lat="47.56934" lon="-3.0256">
        <ele>7.35</ele>
        <time>2020-08-12T08:19:03Z</time>
      </trkpt>
      <trkpt lat="47.56939" lon="-3.02574">
        <ele>7.83</ele>
        <time>2020-08-12T08:19:13Z</time>
      </trkpt>
      <trkpt lat="47.56947" lon="-3.0259">
        <ele>8.31</ele>
        <time>2020-08-12T08:19:25Z</time>
      </trkpt>
      <trkpt lat="47.56956" lon="-3.02599">
        <ele>8.31</ele>
        <time>2020-08-12T08:19:35Z</time>
      </trkpt>
      <trkpt lat="47.56959" lon="-3.02616">
        <ele>8.31</ele>
        <time>2020-08-12T08:19:46Z</time>
      </trkpt>
      <trkpt lat="47.56963" lon="-3.02626">
        <ele>8.31</ele>
        <time>2020-08-12T08:19:59Z</time>
      </trkpt>
      <trkpt lat="47.56969" lon="-3.02632">
        <ele>8.79</ele>
        <time>2020-08-12T08:20:08Z</time>
      </trkpt>
      <trkpt lat="47.56975" lon="-3.02637">
        <ele>8.79</ele>
        <time>2020-08-12T08:20:17Z</time>
      </trkpt>
      <trkpt lat="47.56979" lon="-3.0264">
        <ele>8.79</ele>
        <time>2020-08-12T08:20:21Z</time>
      </trkpt>
      <trkpt lat="47.56985" lon="-3.02646">
        <ele>8.79</ele>
        <time>2020-08-12T08:20:29Z</time>
      </trkpt>
      <trkpt lat="47.56988" lon="-3.0265">
        <ele>9.27</ele>
        <time>2020-08-12T08:20:33Z</time>
      </trkpt>
      <trkpt lat="47.57004" lon="-3.02661">
        <ele>9.27</ele>
        <time>2020-08-12T08:20:50Z</time>
      </trkpt>
      <trkpt lat="47.5701" lon="-3.02669">
        <ele>9.27</ele>
        <time>2020-08-12T08:21:03Z</time>
      </trkpt>
      <trkpt lat="47.5701" lon="-3.02671">
        <ele>9.27</ele>
        <time>2020-08-12T08:21:04Z</time>
      </trkpt>
      <trkpt lat="47.57018" lon="-3.02679">
        <ele>8.31</ele>
        <time>2020-08-12T08:21:14Z</time>
      </trkpt>
      <trkpt lat="47.57019" lon="-3.02682">
        <ele>8.31</ele>
        <time>2020-08-12T08:21:17Z</time>
      </trkpt>
      <trkpt lat="47.57025" lon="-3.02681">
        <ele>8.79</ele>
        <time>2020-08-12T08:21:24Z</time>
      </trkpt>
      <trkpt lat="47.57037" lon="-3.02676">
        <ele>6.87</ele>
        <time>2020-08-12T08:21:38Z</time>
      </trkpt>
      <trkpt lat="47.5704" lon="-3.02677">
        <ele>6.87</ele>
        <time>2020-08-12T08:21:44Z</time>
      </trkpt>
      <trkpt lat="47.57054" lon="-3.02675">
        <ele>7.83</ele>
        <time>2020-08-12T08:21:59Z</time>
      </trkpt>
      <trkpt lat="47.57064" lon="-3.02677">
        <ele>7.35</ele>
        <time>2020-08-12T08:22:09Z</time>
      </trkpt>
      <trkpt lat="47.5708" lon="-3.02693">
        <ele>6.87</ele>
        <time>2020-08-12T08:22:26Z</time>
      </trkpt>
      <trkpt lat="47.57084" lon="-3.02698">
        <ele>6.87</ele>
        <time>2020-08-12T08:22:30Z</time>
      </trkpt>
      <trkpt lat="47.57098" lon="-3.02716">
        <ele>7.83</ele>
        <time>2020-08-12T08:22:46Z</time>
      </trkpt>
      <trkpt lat="47.57099" lon="-3.0272">
        <ele>7.83</ele>
        <time>2020-08-12T08:22:49Z</time>
      </trkpt>
      <trkpt lat="47.57099" lon="-3.02728">
        <ele>7.83</ele>
        <time>2020-08-12T08:22:55Z</time>
      </trkpt>
      <trkpt lat="47.57101" lon="-3.02732">
        <ele>7.35</ele>
        <time>2020-08-12T08:22:58Z</time>
      </trkpt>
      <trkpt lat="47.57109" lon="-3.02746">
        <ele>7.35</ele>
        <time>2020-08-12T08:23:10Z</time>
      </trkpt>
      <trkpt lat="47.57113" lon="-3.02755">
        <ele>7.83</ele>
        <time>2020-08-12T08:23:17Z</time>
      </trkpt>
      <trkpt lat="47.57122" lon="-3.02766">
        <ele>6.87</ele>
        <time>2020-08-12T08:23:31Z</time>
      </trkpt>
      <trkpt lat="47.57125" lon="-3.02769">
        <ele>6.39</ele>
        <time>2020-08-12T08:23:35Z</time>
      </trkpt>
      <trkpt lat="47.5714" lon="-3.02773">
        <ele>6.39</ele>
        <time>2020-08-12T08:23:50Z</time>
      </trkpt>
      <trkpt lat="47.57154" lon="-3.02769">
        <ele>6.87</ele>
        <time>2020-08-12T08:24:04Z</time>
      </trkpt>
      <trkpt lat="47.57163" lon="-3.02761">
        <ele>6.87</ele>
        <time>2020-08-12T08:24:15Z</time>
      </trkpt>
      <trkpt lat="47.57168" lon="-3.02754">
        <ele>6.87</ele>
        <time>2020-08-12T08:24:21Z</time>
      </trkpt>
      <trkpt lat="47.57178" lon="-3.02736">
        <ele>6.87</ele>
        <time>2020-08-12T08:24:36Z</time>
      </trkpt>
      <trkpt lat="47.57179" lon="-3.02733">
        <ele>6.39</ele>
        <time>2020-08-12T08:24:40Z</time>
      </trkpt>
      <trkpt lat="47.57183" lon="-3.02725">
        <ele>6.87</ele>
        <time>2020-08-12T08:24:47Z</time>
      </trkpt>
      <trkpt lat="47.57192" lon="-3.02706">
        <ele>6.87</ele>
        <time>2020-08-12T08:25:01Z</time>
      </trkpt>
      <trkpt lat="47.57197" lon="-3.02698">
        <ele>5.42</ele>
        <time>2020-08-12T08:25:14Z</time>
      </trkpt>
      <trkpt lat="47.57203" lon="-3.02698">
        <ele>5.42</ele>
        <time>2020-08-12T08:25:21Z</time>
      </trkpt>
      <trkpt lat="47.57208" lon="-3.02697">
        <ele>5.42</ele>
        <time>2020-08-12T08:25:27Z</time>
      </trkpt>
      <trkpt lat="47.57216" lon="-3.02698">
        <ele>5.42</ele>
        <time>2020-08-12T08:25:35Z</time>
      </trkpt>
      <trkpt lat="47.5722" lon="-3.02699">
        <ele>5.42</ele>
        <time>2020-08-12T08:25:39Z</time>
      </trkpt>
      <trkpt lat="47.57231" lon="-3.02703">
        <ele>5.42</ele>
        <time>2020-08-12T08:25:50Z</time>
      </trkpt>
      <trkpt lat="47.57243" lon="-3.02711">
        <ele>5.42</ele>
        <time>2020-08-12T08:26:05Z</time>
      </trkpt>
      <trkpt lat="47.57251" lon="-3.02715">
        <ele>5.91</ele>
        <time>2020-08-12T08:26:19Z</time>
      </trkpt>
      <trkpt lat="47.57255" lon="-3.02718">
        <ele>5.91</ele>
        <time>2020-08-12T08:26:45Z</time>
      </trkpt>
      <trkpt lat="47.57256" lon="-3.02717">
        <ele>5.42</ele>
        <time>2020-08-12T08:27:10Z</time>
      </trkpt>
      <trkpt lat="47.57256" lon="-3.02717">
        <ele>5.91</ele>
        <time>2020-08-12T08:27:37Z</time>
      </trkpt>
      <trkpt lat="47.57258" lon="-3.02721">
        <ele>5.42</ele>
        <time>2020-08-12T08:27:57Z</time>
      </trkpt>
      <trkpt lat="47.57259" lon="-3.02725">
        <ele>5.91</ele>
        <time>2020-08-12T08:28:02Z</time>
      </trkpt>
      <trkpt lat="47.57262" lon="-3.02733">
        <ele>5.42</ele>
        <time>2020-08-12T08:28:08Z</time>
      </trkpt>
      <trkpt lat="47.57267" lon="-3.02749">
        <ele>5.42</ele>
        <time>2020-08-12T08:28:17Z</time>
      </trkpt>
      <trkpt lat="47.57269" lon="-3.02755">
        <ele>5.42</ele>
        <time>2020-08-12T08:28:21Z</time>
      </trkpt>
      <trkpt lat="47.57273" lon="-3.02765">
        <ele>4.94</ele>
        <time>2020-08-12T08:28:27Z</time>
      </trkpt>
      <trkpt lat="47.57282" lon="-3.02787">
        <ele>4.94</ele>
        <time>2020-08-12T08:28:41Z</time>
      </trkpt>
      <trkpt lat="47.57283" lon="-3.0279">
        <ele>4.94</ele>
        <time>2020-08-12T08:28:43Z</time>
      </trkpt>
      <trkpt lat="47.57289" lon="-3.02805">
        <ele>4.94</ele>
        <time>2020-08-12T08:28:52Z</time>
      </trkpt>
      <trkpt lat="47.57298" lon="-3.0282">
        <ele>5.42</ele>
        <time>2020-08-12T08:29:04Z</time>
      </trkpt>
      <trkpt lat="47.57308" lon="-3.02844">
        <ele>4.94</ele>
        <time>2020-08-12T08:29:21Z</time>
      </trkpt>
      <trkpt lat="47.57316" lon="-3.02863">
        <ele>4.94</ele>
        <time>2020-08-12T08:29:34Z</time>
      </trkpt>
      <trkpt lat="47.57324" lon="-3.02886">
        <ele>5.42</ele>
        <time>2020-08-12T08:29:49Z</time>
      </trkpt>
      <trkpt lat="47.57328" lon="-3.02902">
        <ele>4.94</ele>
        <time>2020-08-12T08:29:59Z</time>
      </trkpt>
      <trkpt lat="47.57333" lon="-3.02923">
        <ele>4.94</ele>
        <time>2020-08-12T08:30:13Z</time>
      </trkpt>
      <trkpt lat="47.57336" lon="-3.02944">
        <ele>4.94</ele>
        <time>2020-08-12T08:30:27Z</time>
      </trkpt>
      <trkpt lat="47.57336" lon="-3.02952">
        <ele>4.94</ele>
        <time>2020-08-12T08:30:31Z</time>
      </trkpt>
      <trkpt lat="47.57337" lon="-3.0296">
        <ele>4.94</ele>
        <time>2020-08-12T08:30:36Z</time>
      </trkpt>
      <trkpt lat="47.57339" lon="-3.02979">
        <ele>4.94</ele>
        <time>2020-08-12T08:30:47Z</time>
      </trkpt>
      <trkpt lat="47.5734" lon="-3.03005">
        <ele>5.42</ele>
        <time>2020-08-12T08:31:03Z</time>
      </trkpt>
      <trkpt lat="47.5734" lon="-3.03007">
        <ele>4.94</ele>
        <time>2020-08-12T08:31:04Z</time>
      </trkpt>
      <trkpt lat="47.57341" lon="-3.03027">
        <ele>5.42</ele>
        <time>2020-08-12T08:31:17Z</time>
      </trkpt>
      <trkpt lat="47.57341" lon="-3.03046">
        <ele>4.94</ele>
        <time>2020-08-12T08:31:28Z</time>
      </trkpt>
      <trkpt lat="47.57341" lon="-3.03063">
        <ele>4.94</ele>
        <time>2020-08-12T08:31:38Z</time>
      </trkpt>
      <trkpt lat="47.5734" lon="-3.03073">
        <ele>4.94</ele>
        <time>2020-08-12T08:31:44Z</time>
      </trkpt>
      <trkpt lat="47.5734" lon="-3.03088">
        <ele>4.94</ele>
        <time>2020-08-12T08:31:53Z</time>
      </trkpt>
      <trkpt lat="47.5734" lon="-3.03097">
        <ele>4.94</ele>
        <time>2020-08-12T08:31:58Z</time>
      </trkpt>
      <trkpt lat="47.57339" lon="-3.03114">
        <ele>5.42</ele>
        <time>2020-08-12T08:32:08Z</time>
      </trkpt>
      <trkpt lat="47.57339" lon="-3.03138">
        <ele>4.94</ele>
        <time>2020-08-12T08:32:22Z</time>
      </trkpt>
      <trkpt lat="47.57338" lon="-3.03146">
        <ele>4.94</ele>
        <time>2020-08-12T08:32:27Z</time>
      </trkpt>
      <trkpt lat="47.57339" lon="-3.03148">
        <ele>4.94</ele>
        <time>2020-08-12T08:32:29Z</time>
      </trkpt>
      <trkpt lat="47.57338" lon="-3.03162">
        <ele>4.94</ele>
        <time>2020-08-12T08:32:38Z</time>
      </trkpt>
      <trkpt lat="47.57336" lon="-3.03187">
        <ele>4.46</ele>
        <time>2020-08-12T08:32:52Z</time>
      </trkpt>
      <trkpt lat="47.57335" lon="-3.03193">
        <ele>4.94</ele>
        <time>2020-08-12T08:32:56Z</time>
      </trkpt>
      <trkpt lat="47.57334" lon="-3.03198">
        <ele>4.94</ele>
        <time>2020-08-12T08:32:59Z</time>
      </trkpt>
      <trkpt lat="47.57333" lon="-3.03213">
        <ele>4.46</ele>
        <time>2020-08-12T08:33:08Z</time>
      </trkpt>
      <trkpt lat="47.57331" lon="-3.03236">
        <ele>4.46</ele>
        <time>2020-08-12T08:33:22Z</time>
      </trkpt>
      <trkpt lat="47.57328" lon="-3.03259">
        <ele>4.94</ele>
        <time>2020-08-12T08:33:35Z</time>
      </trkpt>
      <trkpt lat="47.57326" lon="-3.0328">
        <ele>4.46</ele>
        <time>2020-08-12T08:33:47Z</time>
      </trkpt>
      <trkpt lat="47.57324" lon="-3.03303">
        <ele>4.94</ele>
        <time>2020-08-12T08:34:01Z</time>
      </trkpt>
      <trkpt lat="47.57324" lon="-3.03304">
        <ele>4.94</ele>
        <time>2020-08-12T08:34:02Z</time>
      </trkpt>
      <trkpt lat="47.57322" lon="-3.03324">
        <ele>4.46</ele>
        <time>2020-08-12T08:34:14Z</time>
      </trkpt>
      <trkpt lat="47.57319" lon="-3.03342">
        <ele>3.98</ele>
        <time>2020-08-12T08:34:26Z</time>
      </trkpt>
      <trkpt lat="47.57318" lon="-3.03345">
        <ele>3.98</ele>
        <time>2020-08-12T08:34:28Z</time>
      </trkpt>
      <trkpt lat="47.57318" lon="-3.0335">
        <ele>4.46</ele>
        <time>2020-08-12T08:34:31Z</time>
      </trkpt>
      <trkpt lat="47.57314" lon="-3.03368">
        <ele>3.98</ele>
        <time>2020-08-12T08:34:44Z</time>
      </trkpt>
      <trkpt lat="47.57307" lon="-3.03379">
        <ele>3.98</ele>
        <time>2020-08-12T08:34:56Z</time>
      </trkpt>
      <trkpt lat="47.57304" lon="-3.03391">
        <ele>3.98</ele>
        <time>2020-08-12T08:35:09Z</time>
      </trkpt>
      <trkpt lat="47.57305" lon="-3.03399">
        <ele>3.98</ele>
        <time>2020-08-12T08:35:17Z</time>
      </trkpt>
      <trkpt lat="47.57307" lon="-3.03412">
        <ele>3.98</ele>
        <time>2020-08-12T08:35:25Z</time>
      </trkpt>
      <trkpt lat="47.57307" lon="-3.03415">
        <ele>3.98</ele>
        <time>2020-08-12T08:35:27Z</time>
      </trkpt>
      <trkpt lat="47.57309" lon="-3.03421">
        <ele>3.98</ele>
        <time>2020-08-12T08:35:31Z</time>
      </trkpt>
      <trkpt lat="47.5731" lon="-3.03431">
        <ele>3.98</ele>
        <time>2020-08-12T08:35:37Z</time>
      </trkpt>
      <trkpt lat="47.57311" lon="-3.03438">
        <ele>3.5</ele>
        <time>2020-08-12T08:35:41Z</time>
      </trkpt>
      <trkpt lat="47.57312" lon="-3.03444">
        <ele>3.5</ele>
        <time>2020-08-12T08:35:45Z</time>
      </trkpt>
      <trkpt lat="47.57313" lon="-3.03448">
        <ele>3.5</ele>
        <time>2020-08-12T08:35:48Z</time>
      </trkpt>
      <trkpt lat="47.57317" lon="-3.03471">
        <ele>3.98</ele>
        <time>2020-08-12T08:36:02Z</time>
      </trkpt>
      <trkpt lat="47.57322" lon="-3.03492">
        <ele>3.5</ele>
        <time>2020-08-12T08:36:15Z</time>
      </trkpt>
      <trkpt lat="47.57323" lon="-3.03499">
        <ele>3.02</ele>
        <time>2020-08-12T08:36:20Z</time>
      </trkpt>
      <trkpt lat="47.57326" lon="-3.0351">
        <ele>3.02</ele>
        <time>2020-08-12T08:36:28Z</time>
      </trkpt>
      <trkpt lat="47.57328" lon="-3.03518">
        <ele>3.5</ele>
        <time>2020-08-12T08:36:34Z</time>
      </trkpt>
      <trkpt lat="47.57331" lon="-3.03538">
        <ele>3.02</ele>
        <time>2020-08-12T08:36:47Z</time>
      </trkpt>
      <trkpt lat="47.57334" lon="-3.03558">
        <ele>2.54</ele>
        <time>2020-08-12T08:37:00Z</time>
      </trkpt>
      <trkpt lat="47.57334" lon="-3.0356">
        <ele>3.02</ele>
        <time>2020-08-12T08:37:01Z</time>
      </trkpt>
      <trkpt lat="47.57334" lon="-3.03564">
        <ele>2.06</ele>
        <time>2020-08-12T08:37:03Z</time>
      </trkpt>
      <trkpt lat="47.57337" lon="-3.03583">
        <ele>2.06</ele>
        <time>2020-08-12T08:37:16Z</time>
      </trkpt>
      <trkpt lat="47.57337" lon="-3.03584">
        <ele>2.06</ele>
        <time>2020-08-12T08:37:17Z</time>
      </trkpt>
      <trkpt lat="47.57338" lon="-3.03587">
        <ele>2.54</ele>
        <time>2020-08-12T08:37:20Z</time>
      </trkpt>
      <trkpt lat="47.57337" lon="-3.03592">
        <ele>2.54</ele>
        <time>2020-08-12T08:37:23Z</time>
      </trkpt>
      <trkpt lat="47.57339" lon="-3.03602">
        <ele>2.06</ele>
        <time>2020-08-12T08:37:31Z</time>
      </trkpt>
      <trkpt lat="47.57339" lon="-3.03626">
        <ele>1.58</ele>
        <time>2020-08-12T08:37:46Z</time>
      </trkpt>
      <trkpt lat="47.5734" lon="-3.03641">
        <ele>2.06</ele>
        <time>2020-08-12T08:37:57Z</time>
      </trkpt>
      <trkpt lat="47.5734" lon="-3.03643">
        <ele>1.58</ele>
        <time>2020-08-12T08:37:58Z</time>
      </trkpt>
      <trkpt lat="47.57341" lon="-3.03661">
        <ele>2.06</ele>
        <time>2020-08-12T08:38:11Z</time>
      </trkpt>
      <trkpt lat="47.57343" lon="-3.03685">
        <ele>2.06</ele>
        <time>2020-08-12T08:38:26Z</time>
      </trkpt>
      <trkpt lat="47.57344" lon="-3.03703">
        <ele>1.58</ele>
        <time>2020-08-12T08:38:38Z</time>
      </trkpt>
      <trkpt lat="47.57344" lon="-3.03712">
        <ele>1.58</ele>
        <time>2020-08-12T08:38:45Z</time>
      </trkpt>
      <trkpt lat="47.57344" lon="-3.03729">
        <ele>2.06</ele>
        <time>2020-08-12T08:38:56Z</time>
      </trkpt>
      <trkpt lat="47.57344" lon="-3.03736">
        <ele>1.58</ele>
        <time>2020-08-12T08:39:00Z</time>
      </trkpt>
      <trkpt lat="47.57343" lon="-3.03741">
        <ele>1.58</ele>
        <time>2020-08-12T08:39:03Z</time>
      </trkpt>
      <trkpt lat="47.57343" lon="-3.03754">
        <ele>1.1</ele>
        <time>2020-08-12T08:39:15Z</time>
      </trkpt>
      <trkpt lat="47.57343" lon="-3.03761">
        <ele>1.58</ele>
        <time>2020-08-12T08:39:20Z</time>
      </trkpt>
      <trkpt lat="47.57342" lon="-3.03765">
        <ele>1.58</ele>
        <time>2020-08-12T08:39:23Z</time>
      </trkpt>
      <trkpt lat="47.57342" lon="-3.03784">
        <ele>1.58</ele>
        <time>2020-08-12T08:39:37Z</time>
      </trkpt>
      <trkpt lat="47.57341" lon="-3.03798">
        <ele>2.06</ele>
        <time>2020-08-12T08:39:48Z</time>
      </trkpt>
      <trkpt lat="47.57339" lon="-3.03804">
        <ele>1.58</ele>
        <time>2020-08-12T08:40:01Z</time>
      </trkpt>
      <trkpt lat="47.5734" lon="-3.03802">
        <ele>1.58</ele>
        <time>2020-08-12T08:40:17Z</time>
      </trkpt>
      <trkpt lat="47.57344" lon="-3.03803">
        <ele>2.54</ele>
        <time>2020-08-12T08:40:28Z</time>
      </trkpt>
      <trkpt lat="47.57352" lon="-3.03808">
        <ele>3.02</ele>
        <time>2020-08-12T08:40:43Z</time>
      </trkpt>
      <trkpt lat="47.57353" lon="-3.03809">
        <ele>2.54</ele>
        <time>2020-08-12T08:40:44Z</time>
      </trkpt>
      <trkpt lat="47.57357" lon="-3.03815">
        <ele>4.94</ele>
        <time>2020-08-12T08:40:57Z</time>
      </trkpt>
      <trkpt lat="47.57357" lon="-3.03815">
        <ele>4.46</ele>
        <time>2020-08-12T08:41:24Z</time>
      </trkpt>
      <trkpt lat="47.57356" lon="-3.03814">
        <ele>4.46</ele>
        <time>2020-08-12T08:41:49Z</time>
      </trkpt>
      <trkpt lat="47.57356" lon="-3.03809">
        <ele>3.98</ele>
        <time>2020-08-12T08:41:56Z</time>
      </trkpt>
      <trkpt lat="47.57357" lon="-3.03803">
        <ele>3.98</ele>
        <time>2020-08-12T08:42:02Z</time>
      </trkpt>
      <trkpt lat="47.57359" lon="-3.03797">
        <ele>3.98</ele>
        <time>2020-08-12T08:42:09Z</time>
      </trkpt>
      <trkpt lat="47.57359" lon="-3.03793">
        <ele>3.98</ele>
        <time>2020-08-12T08:42:12Z</time>
      </trkpt>
      <trkpt lat="47.57359" lon="-3.03788">
        <ele>3.98</ele>
        <time>2020-08-12T08:42:16Z</time>
      </trkpt>
      <trkpt lat="47.57359" lon="-3.03786">
        <ele>3.98</ele>
        <time>2020-08-12T08:42:18Z</time>
      </trkpt>
      <trkpt lat="47.57359" lon="-3.03778">
        <ele>3.02</ele>
        <time>2020-08-12T08:42:33Z</time>
      </trkpt>
      <trkpt lat="47.5736" lon="-3.03774">
        <ele>3.02</ele>
        <time>2020-08-12T08:42:48Z</time>
      </trkpt>
      <trkpt lat="47.5736" lon="-3.03771">
        <ele>3.5</ele>
        <time>2020-08-12T08:43:04Z</time>
      </trkpt>
      <trkpt lat="47.5736" lon="-3.03768">
        <ele>3.98</ele>
        <time>2020-08-12T08:43:06Z</time>
      </trkpt>
      <trkpt lat="47.57362" lon="-3.03759">
        <ele>3.5</ele>
        <time>2020-08-12T08:43:14Z</time>
      </trkpt>
      <trkpt lat="47.57369" lon="-3.0376">
        <ele>4.46</ele>
        <time>2020-08-12T08:43:28Z</time>
      </trkpt>
      <trkpt lat="47.5737" lon="-3.0376">
        <ele>4.46</ele>
        <time>2020-08-12T08:43:44Z</time>
      </trkpt>
      <trkpt lat="47.57373" lon="-3.03749">
        <ele>4.94</ele>
        <time>2020-08-12T08:43:57Z</time>
      </trkpt>
      <trkpt lat="47.57374" lon="-3.03738">
        <ele>5.42</ele>
        <time>2020-08-12T08:44:06Z</time>
      </trkpt>
      <trkpt lat="47.57374" lon="-3.03721">
        <ele>5.42</ele>
        <time>2020-08-12T08:44:19Z</time>
      </trkpt>
      <trkpt lat="47.57374" lon="-3.0372">
        <ele>5.91</ele>
        <time>2020-08-12T08:44:20Z</time>
      </trkpt>
      <trkpt lat="47.57374" lon="-3.03717">
        <ele>5.91</ele>
        <time>2020-08-12T08:44:22Z</time>
      </trkpt>
      <trkpt lat="47.57375" lon="-3.03702">
        <ele>6.39</ele>
        <time>2020-08-12T08:44:33Z</time>
      </trkpt>
      <trkpt lat="47.57376" lon="-3.03682">
        <ele>6.39</ele>
        <time>2020-08-12T08:44:48Z</time>
      </trkpt>
      <trkpt lat="47.57377" lon="-3.03661">
        <ele>6.39</ele>
        <time>2020-08-12T08:45:03Z</time>
      </trkpt>
      <trkpt lat="47.57378" lon="-3.03654">
        <ele>5.91</ele>
        <time>2020-08-12T08:45:08Z</time>
      </trkpt>
      <trkpt lat="47.57378" lon="-3.03651">
        <ele>5.91</ele>
        <time>2020-08-12T08:45:10Z</time>
      </trkpt>
      <trkpt lat="47.5738" lon="-3.03644">
        <ele>6.39</ele>
        <time>2020-08-12T08:45:16Z</time>
      </trkpt>
      <trkpt lat="47.5738" lon="-3.03641">
        <ele>6.39</ele>
        <time>2020-08-12T08:45:18Z</time>
      </trkpt>
      <trkpt lat="47.57381" lon="-3.03631">
        <ele>6.39</ele>
        <time>2020-08-12T08:45:24Z</time>
      </trkpt>
      <trkpt lat="47.5738" lon="-3.03628">
        <ele>6.39</ele>
        <time>2020-08-12T08:45:26Z</time>
      </trkpt>
      <trkpt lat="47.57381" lon="-3.03609">
        <ele>6.39</ele>
        <time>2020-08-12T08:45:39Z</time>
      </trkpt>
      <trkpt lat="47.57381" lon="-3.03594">
        <ele>5.42</ele>
        <time>2020-08-12T08:45:52Z</time>
      </trkpt>
      <trkpt lat="47.5739" lon="-3.03588">
        <ele>3.98</ele>
        <time>2020-08-12T08:46:05Z</time>
      </trkpt>
      <trkpt lat="47.57392" lon="-3.03582">
        <ele>3.5</ele>
        <time>2020-08-12T08:46:17Z</time>
      </trkpt>
      <trkpt lat="47.57392" lon="-3.03575">
        <ele>3.5</ele>
        <time>2020-08-12T08:46:22Z</time>
      </trkpt>
      <trkpt lat="47.57392" lon="-3.0355">
        <ele>4.46</ele>
        <time>2020-08-12T08:46:36Z</time>
      </trkpt>
      <trkpt lat="47.57393" lon="-3.03542">
        <ele>5.42</ele>
        <time>2020-08-12T08:46:42Z</time>
      </trkpt>
      <trkpt lat="47.57394" lon="-3.03524">
        <ele>4.94</ele>
        <time>2020-08-12T08:46:56Z</time>
      </trkpt>
      <trkpt lat="47.57392" lon="-3.03506">
        <ele>4.94</ele>
        <time>2020-08-12T08:47:09Z</time>
      </trkpt>
      <trkpt lat="47.57392" lon="-3.03493">
        <ele>4.94</ele>
        <time>2020-08-12T08:47:16Z</time>
      </trkpt>
      <trkpt lat="47.57391" lon="-3.03473">
        <ele>4.94</ele>
        <time>2020-08-12T08:47:29Z</time>
      </trkpt>
      <trkpt lat="47.57394" lon="-3.03464">
        <ele>4.94</ele>
        <time>2020-08-12T08:47:47Z</time>
      </trkpt>
      <trkpt lat="47.57394" lon="-3.03456">
        <ele>4.94</ele>
        <time>2020-08-12T08:48:04Z</time>
      </trkpt>
      <trkpt lat="47.57392" lon="-3.03452">
        <ele>4.94</ele>
        <time>2020-08-12T08:48:07Z</time>
      </trkpt>
      <trkpt lat="47.5739" lon="-3.03439">
        <ele>4.94</ele>
        <time>2020-08-12T08:48:14Z</time>
      </trkpt>
      <trkpt lat="47.57386" lon="-3.03429">
        <ele>4.46</ele>
        <time>2020-08-12T08:48:21Z</time>
      </trkpt>
      <trkpt lat="47.57382" lon="-3.03402">
        <ele>4.46</ele>
        <time>2020-08-12T08:48:36Z</time>
      </trkpt>
      <trkpt lat="47.57382" lon="-3.034">
        <ele>4.46</ele>
        <time>2020-08-12T08:48:37Z</time>
      </trkpt>
      <trkpt lat="47.57374" lon="-3.0338">
        <ele>4.46</ele>
        <time>2020-08-12T08:48:50Z</time>
      </trkpt>
      <trkpt lat="47.5737" lon="-3.0337">
        <ele>4.46</ele>
        <time>2020-08-12T08:49:01Z</time>
      </trkpt>
      <trkpt lat="47.57367" lon="-3.03357">
        <ele>4.46</ele>
        <time>2020-08-12T08:49:08Z</time>
      </trkpt>
      <trkpt lat="47.57362" lon="-3.03335">
        <ele>4.46</ele>
        <time>2020-08-12T08:49:22Z</time>
      </trkpt>
      <trkpt lat="47.57357" lon="-3.03314">
        <ele>4.46</ele>
        <time>2020-08-12T08:49:38Z</time>
      </trkpt>
      <trkpt lat="47.57359" lon="-3.03296">
        <ele>4.94</ele>
        <time>2020-08-12T08:49:52Z</time>
      </trkpt>
      <trkpt lat="47.57361" lon="-3.0328">
        <ele>4.94</ele>
        <time>2020-08-12T08:50:03Z</time>
      </trkpt>
      <trkpt lat="47.57365" lon="-3.03261">
        <ele>4.94</ele>
        <time>2020-08-12T08:50:18Z</time>
      </trkpt>
      <trkpt lat="47.57366" lon="-3.03257">
        <ele>4.94</ele>
        <time>2020-08-12T08:50:23Z</time>
      </trkpt>
      <trkpt lat="47.57367" lon="-3.03239">
        <ele>5.42</ele>
        <time>2020-08-12T08:50:36Z</time>
      </trkpt>
      <trkpt lat="47.57372" lon="-3.03222">
        <ele>5.42</ele>
        <time>2020-08-12T08:50:50Z</time>
      </trkpt>
      <trkpt lat="47.57372" lon="-3.03213">
        <ele>5.42</ele>
        <time>2020-08-12T08:51:00Z</time>
      </trkpt>
      <trkpt lat="47.57376" lon="-3.03192">
        <ele>4.94</ele>
        <time>2020-08-12T08:51:13Z</time>
      </trkpt>
      <trkpt lat="47.57381" lon="-3.03174">
        <ele>4.46</ele>
        <time>2020-08-12T08:51:29Z</time>
      </trkpt>
      <trkpt lat="47.5738" lon="-3.03173">
        <ele>4.46</ele>
        <time>2020-08-12T08:51:52Z</time>
      </trkpt>
      <trkpt lat="47.57384" lon="-3.03152">
        <ele>3.5</ele>
        <time>2020-08-12T08:52:08Z</time>
      </trkpt>
      <trkpt lat="47.57389" lon="-3.03136">
        <ele>3.98</ele>
        <time>2020-08-12T08:52:18Z</time>
      </trkpt>
      <trkpt lat="47.5739" lon="-3.03131">
        <ele>3.5</ele>
        <time>2020-08-12T08:52:21Z</time>
      </trkpt>
      <trkpt lat="47.57391" lon="-3.03125">
        <ele>3.98</ele>
        <time>2020-08-12T08:52:25Z</time>
      </trkpt>
      <trkpt lat="47.57394" lon="-3.0311">
        <ele>3.98</ele>
        <time>2020-08-12T08:52:36Z</time>
      </trkpt>
      <trkpt lat="47.57394" lon="-3.031">
        <ele>3.98</ele>
        <time>2020-08-12T08:52:42Z</time>
      </trkpt>
      <trkpt lat="47.57395" lon="-3.03083">
        <ele>3.5</ele>
        <time>2020-08-12T08:52:53Z</time>
      </trkpt>
      <trkpt lat="47.57394" lon="-3.03076">
        <ele>3.98</ele>
        <time>2020-08-12T08:52:58Z</time>
      </trkpt>
      <trkpt lat="47.57394" lon="-3.03055">
        <ele>3.98</ele>
        <time>2020-08-12T08:53:09Z</time>
      </trkpt>
      <trkpt lat="47.57393" lon="-3.03051">
        <ele>4.46</ele>
        <time>2020-08-12T08:53:12Z</time>
      </trkpt>
      <trkpt lat="47.5739" lon="-3.03029">
        <ele>4.46</ele>
        <time>2020-08-12T08:53:26Z</time>
      </trkpt>
      <trkpt lat="47.5739" lon="-3.03026">
        <ele>4.94</ele>
        <time>2020-08-12T08:53:34Z</time>
      </trkpt>
      <trkpt lat="47.57387" lon="-3.03002">
        <ele>5.42</ele>
        <time>2020-08-12T08:53:49Z</time>
      </trkpt>
      <trkpt lat="47.57387" lon="-3.02993">
        <ele>5.42</ele>
        <time>2020-08-12T08:53:54Z</time>
      </trkpt>
      <trkpt lat="47.57386" lon="-3.02984">
        <ele>5.91</ele>
        <time>2020-08-12T08:53:59Z</time>
      </trkpt>
      <trkpt lat="47.57385" lon="-3.02981">
        <ele>5.91</ele>
        <time>2020-08-12T08:54:01Z</time>
      </trkpt>
      <trkpt lat="47.57386" lon="-3.02969">
        <ele>6.39</ele>
        <time>2020-08-12T08:54:09Z</time>
      </trkpt>
      <trkpt lat="47.57387" lon="-3.02949">
        <ele>6.39</ele>
        <time>2020-08-12T08:54:20Z</time>
      </trkpt>
      <trkpt lat="47.57386" lon="-3.02934">
        <ele>6.87</ele>
        <time>2020-08-12T08:54:28Z</time>
      </trkpt>
      <trkpt lat="47.57386" lon="-3.02926">
        <ele>6.87</ele>
        <time>2020-08-12T08:54:33Z</time>
      </trkpt>
      <trkpt lat="47.57386" lon="-3.02915">
        <ele>6.87</ele>
        <time>2020-08-12T08:54:39Z</time>
      </trkpt>
      <trkpt lat="47.57385" lon="-3.02898">
        <ele>6.87</ele>
        <time>2020-08-12T08:54:49Z</time>
      </trkpt>
      <trkpt lat="47.57385" lon="-3.02891">
        <ele>6.87</ele>
        <time>2020-08-12T08:54:53Z</time>
      </trkpt>
      <trkpt lat="47.57384" lon="-3.02881">
        <ele>6.87</ele>
        <time>2020-08-12T08:54:59Z</time>
      </trkpt>
      <trkpt lat="47.57384" lon="-3.02876">
        <ele>6.87</ele>
        <time>2020-08-12T08:55:02Z</time>
      </trkpt>
      <trkpt lat="47.57385" lon="-3.02869">
        <ele>6.87</ele>
        <time>2020-08-12T08:55:06Z</time>
      </trkpt>
      <trkpt lat="47.57386" lon="-3.02859">
        <ele>6.87</ele>
        <time>2020-08-12T08:55:11Z</time>
      </trkpt>
      <trkpt lat="47.57384" lon="-3.0285">
        <ele>6.87</ele>
        <time>2020-08-12T08:55:17Z</time>
      </trkpt>
      <trkpt lat="47.57384" lon="-3.02845">
        <ele>7.35</ele>
        <time>2020-08-12T08:55:20Z</time>
      </trkpt>
      <trkpt lat="47.57386" lon="-3.02829">
        <ele>6.87</ele>
        <time>2020-08-12T08:55:29Z</time>
      </trkpt>
      <trkpt lat="47.57388" lon="-3.02806">
        <ele>7.35</ele>
        <time>2020-08-12T08:55:43Z</time>
      </trkpt>
      <trkpt lat="47.57389" lon="-3.02791">
        <ele>7.35</ele>
        <time>2020-08-12T08:55:52Z</time>
      </trkpt>
      <trkpt lat="47.57391" lon="-3.02779">
        <ele>7.35</ele>
        <time>2020-08-12T08:55:59Z</time>
      </trkpt>
      <trkpt lat="47.5739" lon="-3.02769">
        <ele>7.83</ele>
        <time>2020-08-12T08:56:13Z</time>
      </trkpt>
      <trkpt lat="47.57391" lon="-3.02767">
        <ele>7.83</ele>
        <time>2020-08-12T08:56:31Z</time>
      </trkpt>
      <trkpt lat="47.57391" lon="-3.02767">
        <ele>8.31</ele>
        <time>2020-08-12T08:56:39Z</time>
      </trkpt>
      <trkpt lat="47.5739" lon="-3.02767">
        <ele>7.83</ele>
        <time>2020-08-12T08:56:41Z</time>
      </trkpt>
      <trkpt lat="47.57386" lon="-3.02765">
        <ele>8.31</ele>
        <time>2020-08-12T08:56:46Z</time>
      </trkpt>
      <trkpt lat="47.57372" lon="-3.02757">
        <ele>8.79</ele>
        <time>2020-08-12T08:57:02Z</time>
      </trkpt>
      <trkpt lat="47.57368" lon="-3.02753">
        <ele>8.79</ele>
        <time>2020-08-12T08:57:16Z</time>
      </trkpt>
      <trkpt lat="47.57366" lon="-3.02751">
        <ele>8.79</ele>
        <time>2020-08-12T08:57:18Z</time>
      </trkpt>
      <trkpt lat="47.57361" lon="-3.02748">
        <ele>8.79</ele>
        <time>2020-08-12T08:57:23Z</time>
      </trkpt>
      <trkpt lat="47.57359" lon="-3.02745">
        <ele>9.27</ele>
        <time>2020-08-12T08:57:26Z</time>
      </trkpt>
      <trkpt lat="47.57352" lon="-3.02734">
        <ele>9.27</ele>
        <time>2020-08-12T08:57:35Z</time>
      </trkpt>
      <trkpt lat="47.5734" lon="-3.02718">
        <ele>8.31</ele>
        <time>2020-08-12T08:57:49Z</time>
      </trkpt>
      <trkpt lat="47.57329" lon="-3.02702">
        <ele>7.83</ele>
        <time>2020-08-12T08:58:02Z</time>
      </trkpt>
      <trkpt lat="47.57317" lon="-3.02689">
        <ele>7.83</ele>
        <time>2020-08-12T08:58:15Z</time>
      </trkpt>
      <trkpt lat="47.57312" lon="-3.02685">
        <ele>7.35</ele>
        <time>2020-08-12T08:58:20Z</time>
      </trkpt>
      <trkpt lat="47.57311" lon="-3.02683">
        <ele>7.35</ele>
        <time>2020-08-12T08:58:22Z</time>
      </trkpt>
      <trkpt lat="47.57304" lon="-3.02677">
        <ele>7.35</ele>
        <time>2020-08-12T08:58:29Z</time>
      </trkpt>
      <trkpt lat="47.57293" lon="-3.02664">
        <ele>6.87</ele>
        <time>2020-08-12T08:58:42Z</time>
      </trkpt>
      <trkpt lat="47.57292" lon="-3.02664">
        <ele>6.87</ele>
        <time>2020-08-12T08:58:43Z</time>
      </trkpt>
      <trkpt lat="47.57289" lon="-3.02659">
        <ele>6.87</ele>
        <time>2020-08-12T08:58:47Z</time>
      </trkpt>
      <trkpt lat="47.5728" lon="-3.02648">
        <ele>6.87</ele>
        <time>2020-08-12T08:58:59Z</time>
      </trkpt>
      <trkpt lat="47.57277" lon="-3.02647">
        <ele>6.39</ele>
        <time>2020-08-12T08:59:02Z</time>
      </trkpt>
      <trkpt lat="47.57274" lon="-3.02643">
        <ele>6.39</ele>
        <time>2020-08-12T08:59:07Z</time>
      </trkpt>
      <trkpt lat="47.5727" lon="-3.02641">
        <ele>6.39</ele>
        <time>2020-08-12T08:59:10Z</time>
      </trkpt>
      <trkpt lat="47.57266" lon="-3.02638">
        <ele>6.39</ele>
        <time>2020-08-12T08:59:15Z</time>
      </trkpt>
      <trkpt lat="47.57261" lon="-3.02632">
        <ele>6.39</ele>
        <time>2020-08-12T08:59:22Z</time>
      </trkpt>
      <trkpt lat="47.57254" lon="-3.02624">
        <ele>6.39</ele>
        <time>2020-08-12T08:59:35Z</time>
      </trkpt>
      <trkpt lat="47.57237" lon="-3.02615">
        <ele>6.87</ele>
        <time>2020-08-12T08:59:51Z</time>
      </trkpt>
      <trkpt lat="47.57231" lon="-3.0261">
        <ele>7.35</ele>
        <time>2020-08-12T09:00:03Z</time>
      </trkpt>
      <trkpt lat="47.57218" lon="-3.02602">
        <ele>6.87</ele>
        <time>2020-08-12T09:00:17Z</time>
      </trkpt>
      <trkpt lat="47.57216" lon="-3.02601">
        <ele>5.91</ele>
        <time>2020-08-12T09:00:20Z</time>
      </trkpt>
      <trkpt lat="47.57212" lon="-3.02596">
        <ele>6.39</ele>
        <time>2020-08-12T09:00:24Z</time>
      </trkpt>
      <trkpt lat="47.57207" lon="-3.02591">
        <ele>5.91</ele>
        <time>2020-08-12T09:00:29Z</time>
      </trkpt>
      <trkpt lat="47.572" lon="-3.02587">
        <ele>6.39</ele>
        <time>2020-08-12T09:00:35Z</time>
      </trkpt>
      <trkpt lat="47.57199" lon="-3.02585">
        <ele>6.39</ele>
        <time>2020-08-12T09:00:37Z</time>
      </trkpt>
      <trkpt lat="47.57196" lon="-3.02583">
        <ele>6.39</ele>
        <time>2020-08-12T09:00:40Z</time>
      </trkpt>
      <trkpt lat="47.57185" lon="-3.02571">
        <ele>6.87</ele>
        <time>2020-08-12T09:00:53Z</time>
      </trkpt>
      <trkpt lat="47.57184" lon="-3.02569">
        <ele>6.39</ele>
        <time>2020-08-12T09:01:12Z</time>
      </trkpt>
      <trkpt lat="47.57177" lon="-3.02565">
        <ele>6.87</ele>
        <time>2020-08-12T09:01:27Z</time>
      </trkpt>
      <trkpt lat="47.57164" lon="-3.02555">
        <ele>6.87</ele>
        <time>2020-08-12T09:01:44Z</time>
      </trkpt>
      <trkpt lat="47.5716" lon="-3.02552">
        <ele>6.87</ele>
        <time>2020-08-12T09:01:57Z</time>
      </trkpt>
      <trkpt lat="47.57151" lon="-3.02543">
        <ele>7.35</ele>
        <time>2020-08-12T09:02:11Z</time>
      </trkpt>
      <trkpt lat="47.57141" lon="-3.02533">
        <ele>7.35</ele>
        <time>2020-08-12T09:02:25Z</time>
      </trkpt>
      <trkpt lat="47.5714" lon="-3.02532">
        <ele>7.35</ele>
        <time>2020-08-12T09:02:27Z</time>
      </trkpt>
      <trkpt lat="47.57139" lon="-3.0253">
        <ele>7.83</ele>
        <time>2020-08-12T09:02:29Z</time>
      </trkpt>
      <trkpt lat="47.57127" lon="-3.02524">
        <ele>8.31</ele>
        <time>2020-08-12T09:02:44Z</time>
      </trkpt>
      <trkpt lat="47.57125" lon="-3.0251">
        <ele>8.79</ele>
        <time>2020-08-12T09:02:54Z</time>
      </trkpt>
      <trkpt lat="47.57132" lon="-3.02497">
        <ele>7.83</ele>
        <time>2020-08-12T09:03:07Z</time>
      </trkpt>
      <trkpt lat="47.57139" lon="-3.02484">
        <ele>7.83</ele>
        <time>2020-08-12T09:03:21Z</time>
      </trkpt>
      <trkpt lat="47.57154" lon="-3.02461">
        <ele>8.31</ele>
        <time>2020-08-12T09:03:37Z</time>
      </trkpt>
      <trkpt lat="47.57159" lon="-3.0245">
        <ele>8.79</ele>
        <time>2020-08-12T09:03:45Z</time>
      </trkpt>
      <trkpt lat="47.57161" lon="-3.02447">
        <ele>8.79</ele>
        <time>2020-08-12T09:03:47Z</time>
      </trkpt>
      <trkpt lat="47.57163" lon="-3.02443">
        <ele>8.31</ele>
        <time>2020-08-12T09:03:50Z</time>
      </trkpt>
      <trkpt lat="47.57173" lon="-3.02427">
        <ele>9.27</ele>
        <time>2020-08-12T09:04:06Z</time>
      </trkpt>
      <trkpt lat="47.57176" lon="-3.02411">
        <ele>10.23</ele>
        <time>2020-08-12T09:04:20Z</time>
      </trkpt>
      <trkpt lat="47.5718" lon="-3.0239">
        <ele>11.19</ele>
        <time>2020-08-12T09:04:35Z</time>
      </trkpt>
      <trkpt lat="47.57182" lon="-3.02385">
        <ele>11.19</ele>
        <time>2020-08-12T09:04:39Z</time>
      </trkpt>
      <trkpt lat="47.5718" lon="-3.02384">
        <ele>10.71</ele>
        <time>2020-08-12T09:04:41Z</time>
      </trkpt>
      <trkpt lat="47.57176" lon="-3.02379">
        <ele>11.67</ele>
        <time>2020-08-12T09:04:50Z</time>
      </trkpt>
      <trkpt lat="47.57163" lon="-3.02374">
        <ele>12.15</ele>
        <time>2020-08-12T09:05:03Z</time>
      </trkpt>
      <trkpt lat="47.57151" lon="-3.02363">
        <ele>13.12</ele>
        <time>2020-08-12T09:05:17Z</time>
      </trkpt>
      <trkpt lat="47.57141" lon="-3.02359">
        <ele>13.12</ele>
        <time>2020-08-12T09:05:26Z</time>
      </trkpt>
      <trkpt lat="47.57129" lon="-3.0235">
        <ele>13.12</ele>
        <time>2020-08-12T09:05:39Z</time>
      </trkpt>
      <trkpt lat="47.57129" lon="-3.0235">
        <ele>13.12</ele>
        <time>2020-08-12T09:05:41Z</time>
      </trkpt>
      <trkpt lat="47.57128" lon="-3.02347">
        <ele>13.6</ele>
        <time>2020-08-12T09:05:43Z</time>
      </trkpt>
      <trkpt lat="47.57126" lon="-3.02344">
        <ele>13.12</ele>
        <time>2020-08-12T09:05:46Z</time>
      </trkpt>
      <trkpt lat="47.57121" lon="-3.02338">
        <ele>13.6</ele>
        <time>2020-08-12T09:05:51Z</time>
      </trkpt>
      <trkpt lat="47.57118" lon="-3.02334">
        <ele>13.12</ele>
        <time>2020-08-12T09:05:54Z</time>
      </trkpt>
      <trkpt lat="47.57106" lon="-3.02321">
        <ele>13.12</ele>
        <time>2020-08-12T09:06:08Z</time>
      </trkpt>
      <trkpt lat="47.57101" lon="-3.0231">
        <ele>13.12</ele>
        <time>2020-08-12T09:06:16Z</time>
      </trkpt>
      <trkpt lat="47.57099" lon="-3.02306">
        <ele>13.6</ele>
        <time>2020-08-12T09:06:19Z</time>
      </trkpt>
      <trkpt lat="47.57095" lon="-3.023">
        <ele>13.12</ele>
        <time>2020-08-12T09:06:25Z</time>
      </trkpt>
      <trkpt lat="47.57085" lon="-3.02285">
        <ele>13.12</ele>
        <time>2020-08-12T09:06:39Z</time>
      </trkpt>
      <trkpt lat="47.57084" lon="-3.02283">
        <ele>13.12</ele>
        <time>2020-08-12T09:06:42Z</time>
      </trkpt>
      <trkpt lat="47.57082" lon="-3.02279">
        <ele>13.12</ele>
        <time>2020-08-12T09:06:45Z</time>
      </trkpt>
      <trkpt lat="47.57077" lon="-3.02276">
        <ele>13.12</ele>
        <time>2020-08-12T09:06:50Z</time>
      </trkpt>
      <trkpt lat="47.57071" lon="-3.02272">
        <ele>13.12</ele>
        <time>2020-08-12T09:06:57Z</time>
      </trkpt>
      <trkpt lat="47.57067" lon="-3.02269">
        <ele>12.63</ele>
        <time>2020-08-12T09:07:01Z</time>
      </trkpt>
      <trkpt lat="47.57063" lon="-3.02265">
        <ele>12.63</ele>
        <time>2020-08-12T09:07:05Z</time>
      </trkpt>
      <trkpt lat="47.57061" lon="-3.0226">
        <ele>12.63</ele>
        <time>2020-08-12T09:07:08Z</time>
      </trkpt>
      <trkpt lat="47.57065" lon="-3.02237">
        <ele>11.67</ele>
        <time>2020-08-12T09:07:23Z</time>
      </trkpt>
      <trkpt lat="47.57069" lon="-3.0223">
        <ele>12.15</ele>
        <time>2020-08-12T09:07:37Z</time>
      </trkpt>
      <trkpt lat="47.5707" lon="-3.02228">
        <ele>12.15</ele>
        <time>2020-08-12T09:07:41Z</time>
      </trkpt>
      <trkpt lat="47.57085" lon="-3.02207">
        <ele>11.67</ele>
        <time>2020-08-12T09:07:59Z</time>
      </trkpt>
      <trkpt lat="47.57096" lon="-3.02184">
        <ele>11.19</ele>
        <time>2020-08-12T09:08:15Z</time>
      </trkpt>
      <trkpt lat="47.57102" lon="-3.02179">
        <ele>11.19</ele>
        <time>2020-08-12T09:08:20Z</time>
      </trkpt>
      <trkpt lat="47.57114" lon="-3.02172">
        <ele>10.23</ele>
        <time>2020-08-12T09:08:31Z</time>
      </trkpt>
      <trkpt lat="47.57119" lon="-3.02168">
        <ele>10.71</ele>
        <time>2020-08-12T09:08:36Z</time>
      </trkpt>
      <trkpt lat="47.57126" lon="-3.02161">
        <ele>9.75</ele>
        <time>2020-08-12T09:08:43Z</time>
      </trkpt>
      <trkpt lat="47.57138" lon="-3.02139">
        <ele>8.79</ele>
        <time>2020-08-12T09:09:00Z</time>
      </trkpt>
      <trkpt lat="47.57139" lon="-3.02138">
        <ele>8.79</ele>
        <time>2020-08-12T09:09:01Z</time>
      </trkpt>
      <trkpt lat="47.57145" lon="-3.02134">
        <ele>8.79</ele>
        <time>2020-08-12T09:09:09Z</time>
      </trkpt>
      <trkpt lat="47.57148" lon="-3.02136">
        <ele>8.31</ele>
        <time>2020-08-12T09:09:12Z</time>
      </trkpt>
      <trkpt lat="47.57155" lon="-3.02143">
        <ele>8.31</ele>
        <time>2020-08-12T09:09:19Z</time>
      </trkpt>
      <trkpt lat="47.57161" lon="-3.02153">
        <ele>7.83</ele>
        <time>2020-08-12T09:09:28Z</time>
      </trkpt>
      <trkpt lat="47.57169" lon="-3.02164">
        <ele>7.83</ele>
        <time>2020-08-12T09:09:38Z</time>
      </trkpt>
      <trkpt lat="47.57171" lon="-3.02169">
        <ele>8.79</ele>
        <time>2020-08-12T09:09:42Z</time>
      </trkpt>
      <trkpt lat="47.57177" lon="-3.02181">
        <ele>8.79</ele>
        <time>2020-08-12T09:09:52Z</time>
      </trkpt>
      <trkpt lat="47.57179" lon="-3.02186">
        <ele>8.79</ele>
        <time>2020-08-12T09:09:56Z</time>
      </trkpt>
      <trkpt lat="47.57188" lon="-3.02198">
        <ele>8.79</ele>
        <time>2020-08-12T09:10:08Z</time>
      </trkpt>
      <trkpt lat="47.572" lon="-3.02208">
        <ele>9.27</ele>
        <time>2020-08-12T09:10:21Z</time>
      </trkpt>
      <trkpt lat="47.57216" lon="-3.02216">
        <ele>9.27</ele>
        <time>2020-08-12T09:10:36Z</time>
      </trkpt>
      <trkpt lat="47.57217" lon="-3.02217">
        <ele>9.75</ele>
        <time>2020-08-12T09:10:37Z</time>
      </trkpt>
      <trkpt lat="47.57222" lon="-3.0222">
        <ele>9.27</ele>
        <time>2020-08-12T09:10:41Z</time>
      </trkpt>
      <trkpt lat="47.5723" lon="-3.02224">
        <ele>9.27</ele>
        <time>2020-08-12T09:10:49Z</time>
      </trkpt>
      <trkpt lat="47.57243" lon="-3.02229">
        <ele>8.79</ele>
        <time>2020-08-12T09:11:02Z</time>
      </trkpt>
      <trkpt lat="47.57243" lon="-3.02229">
        <ele>8.79</ele>
        <time>2020-08-12T09:11:03Z</time>
      </trkpt>
      <trkpt lat="47.57247" lon="-3.02231">
        <ele>8.79</ele>
        <time>2020-08-12T09:11:06Z</time>
      </trkpt>
      <trkpt lat="47.57251" lon="-3.02232">
        <ele>7.83</ele>
        <time>2020-08-12T09:11:10Z</time>
      </trkpt>
      <trkpt lat="47.57258" lon="-3.02236">
        <ele>8.31</ele>
        <time>2020-08-12T09:11:16Z</time>
      </trkpt>
      <trkpt lat="47.57258" lon="-3.02241">
        <ele>8.79</ele>
        <time>2020-08-12T09:11:20Z</time>
      </trkpt>
      <trkpt lat="47.57258" lon="-3.0225">
        <ele>8.79</ele>
        <time>2020-08-12T09:11:26Z</time>
      </trkpt>
      <trkpt lat="47.57258" lon="-3.02255">
        <ele>8.79</ele>
        <time>2020-08-12T09:11:29Z</time>
      </trkpt>
      <trkpt lat="47.57255" lon="-3.02258">
        <ele>8.79</ele>
        <time>2020-08-12T09:11:34Z</time>
      </trkpt>
      <trkpt lat="47.57242" lon="-3.02257">
        <ele>8.79</ele>
        <time>2020-08-12T09:11:47Z</time>
      </trkpt>
      <trkpt lat="47.57237" lon="-3.02257">
        <ele>9.75</ele>
        <time>2020-08-12T09:11:54Z</time>
      </trkpt>
      <trkpt lat="47.57237" lon="-3.02264">
        <ele>9.75</ele>
        <time>2020-08-12T09:12:03Z</time>
      </trkpt>
      <trkpt lat="47.57247" lon="-3.02278">
        <ele>8.79</ele>
        <time>2020-08-12T09:12:17Z</time>
      </trkpt>
      <trkpt lat="47.57257" lon="-3.02293">
        <ele>8.31</ele>
        <time>2020-08-12T09:12:29Z</time>
      </trkpt>
      <trkpt lat="47.57259" lon="-3.02295">
        <ele>8.31</ele>
        <time>2020-08-12T09:12:32Z</time>
      </trkpt>
      <trkpt lat="47.57266" lon="-3.02306">
        <ele>8.79</ele>
        <time>2020-08-12T09:12:44Z</time>
      </trkpt>
      <trkpt lat="47.5727" lon="-3.02309">
        <ele>7.83</ele>
        <time>2020-08-12T09:12:52Z</time>
      </trkpt>
      <trkpt lat="47.57281" lon="-3.02322">
        <ele>7.35</ele>
        <time>2020-08-12T09:13:05Z</time>
      </trkpt>
      <trkpt lat="47.57295" lon="-3.02335">
        <ele>7.35</ele>
        <time>2020-08-12T09:13:21Z</time>
      </trkpt>
      <trkpt lat="47.573" lon="-3.02338">
        <ele>7.35</ele>
        <time>2020-08-12T09:13:26Z</time>
      </trkpt>
      <trkpt lat="47.57313" lon="-3.02343">
        <ele>8.31</ele>
        <time>2020-08-12T09:13:40Z</time>
      </trkpt>
      <trkpt lat="47.57322" lon="-3.02347">
        <ele>8.31</ele>
        <time>2020-08-12T09:13:49Z</time>
      </trkpt>
      <trkpt lat="47.57328" lon="-3.02353">
        <ele>8.31</ele>
        <time>2020-08-12T09:13:55Z</time>
      </trkpt>
      <trkpt lat="47.57339" lon="-3.02358">
        <ele>8.31</ele>
        <time>2020-08-12T09:14:06Z</time>
      </trkpt>
      <trkpt lat="47.57349" lon="-3.02355">
        <ele>8.79</ele>
        <time>2020-08-12T09:14:19Z</time>
      </trkpt>
      <trkpt lat="47.57349" lon="-3.02356">
        <ele>8.79</ele>
        <time>2020-08-12T09:14:34Z</time>
      </trkpt>
      <trkpt lat="47.5735" lon="-3.02357">
        <ele>9.27</ele>
        <time>2020-08-12T09:14:56Z</time>
      </trkpt>
      <trkpt lat="47.57352" lon="-3.02357">
        <ele>8.79</ele>
        <time>2020-08-12T09:15:25Z</time>
      </trkpt>
      <trkpt lat="47.57356" lon="-3.02355">
        <ele>8.79</ele>
        <time>2020-08-12T09:15:41Z</time>
      </trkpt>
      <trkpt lat="47.57357" lon="-3.02354">
        <ele>9.27</ele>
        <time>2020-08-12T09:15:43Z</time>
      </trkpt>
      <trkpt lat="47.57362" lon="-3.0235">
        <ele>10.23</ele>
        <time>2020-08-12T09:15:51Z</time>
      </trkpt>
      <trkpt lat="47.57368" lon="-3.02346">
        <ele>9.75</ele>
        <time>2020-08-12T09:16:00Z</time>
      </trkpt>
      <trkpt lat="47.57379" lon="-3.02337">
        <ele>9.27</ele>
        <time>2020-08-12T09:16:11Z</time>
      </trkpt>
      <trkpt lat="47.57383" lon="-3.02334">
        <ele>10.23</ele>
        <time>2020-08-12T09:16:15Z</time>
      </trkpt>
      <trkpt lat="47.57392" lon="-3.02327">
        <ele>10.23</ele>
        <time>2020-08-12T09:16:24Z</time>
      </trkpt>
      <trkpt lat="47.57398" lon="-3.02322">
        <ele>10.23</ele>
        <time>2020-08-12T09:16:30Z</time>
      </trkpt>
      <trkpt lat="47.57403" lon="-3.02322">
        <ele>10.71</ele>
        <time>2020-08-12T09:16:34Z</time>
      </trkpt>
      <trkpt lat="47.57417" lon="-3.02315">
        <ele>10.23</ele>
        <time>2020-08-12T09:16:50Z</time>
      </trkpt>
      <trkpt lat="47.57432" lon="-3.02309">
        <ele>10.23</ele>
        <time>2020-08-12T09:17:03Z</time>
      </trkpt>
      <trkpt lat="47.57445" lon="-3.023">
        <ele>10.71</ele>
        <time>2020-08-12T09:17:16Z</time>
      </trkpt>
      <trkpt lat="47.57448" lon="-3.02294">
        <ele>10.23</ele>
        <time>2020-08-12T09:17:21Z</time>
      </trkpt>
      <trkpt lat="47.5746" lon="-3.02283">
        <ele>10.71</ele>
        <time>2020-08-12T09:17:35Z</time>
      </trkpt>
      <trkpt lat="47.5747" lon="-3.02275">
        <ele>10.71</ele>
        <time>2020-08-12T09:17:47Z</time>
      </trkpt>
      <trkpt lat="47.57472" lon="-3.02272">
        <ele>10.71</ele>
        <time>2020-08-12T09:17:49Z</time>
      </trkpt>
      <trkpt lat="47.57481" lon="-3.02268">
        <ele>11.19</ele>
        <time>2020-08-12T09:17:56Z</time>
      </trkpt>
      <trkpt lat="47.57485" lon="-3.02264">
        <ele>10.71</ele>
        <time>2020-08-12T09:18:00Z</time>
      </trkpt>
      <trkpt lat="47.57501" lon="-3.02257">
        <ele>10.71</ele>
        <time>2020-08-12T09:18:14Z</time>
      </trkpt>
      <trkpt lat="47.57511" lon="-3.02268">
        <ele>10.23</ele>
        <time>2020-08-12T09:18:26Z</time>
      </trkpt>
      <trkpt lat="47.57519" lon="-3.02269">
        <ele>10.23</ele>
        <time>2020-08-12T09:18:33Z</time>
      </trkpt>
      <trkpt lat="47.57521" lon="-3.02269">
        <ele>10.23</ele>
        <time>2020-08-12T09:18:35Z</time>
      </trkpt>
      <trkpt lat="47.57528" lon="-3.02266">
        <ele>10.23</ele>
        <time>2020-08-12T09:18:41Z</time>
      </trkpt>
      <trkpt lat="47.57542" lon="-3.02265">
        <ele>9.27</ele>
        <time>2020-08-12T09:18:55Z</time>
      </trkpt>
      <trkpt lat="47.57547" lon="-3.02266">
        <ele>7.83</ele>
        <time>2020-08-12T09:19:00Z</time>
      </trkpt>
      <trkpt lat="47.57555" lon="-3.02274">
        <ele>7.83</ele>
        <time>2020-08-12T09:19:08Z</time>
      </trkpt>
      <trkpt lat="47.57561" lon="-3.0228">
        <ele>7.83</ele>
        <time>2020-08-12T09:19:15Z</time>
      </trkpt>
      <trkpt lat="47.57565" lon="-3.02287">
        <ele>7.35</ele>
        <time>2020-08-12T09:19:20Z</time>
      </trkpt>
      <trkpt lat="47.57571" lon="-3.02306">
        <ele>8.79</ele>
        <time>2020-08-12T09:19:33Z</time>
      </trkpt>
      <trkpt lat="47.57579" lon="-3.02309">
        <ele>9.27</ele>
        <time>2020-08-12T09:19:40Z</time>
      </trkpt>
      <trkpt lat="47.5759" lon="-3.02308">
        <ele>10.23</ele>
        <time>2020-08-12T09:19:52Z</time>
      </trkpt>
      <trkpt lat="47.57605" lon="-3.02312">
        <ele>11.67</ele>
        <time>2020-08-12T09:20:06Z</time>
      </trkpt>
      <trkpt lat="47.57618" lon="-3.02315">
        <ele>12.63</ele>
        <time>2020-08-12T09:20:19Z</time>
      </trkpt>
      <trkpt lat="47.57624" lon="-3.02319">
        <ele>13.6</ele>
        <time>2020-08-12T09:20:25Z</time>
      </trkpt>
      <trkpt lat="47.57627" lon="-3.02321">
        <ele>13.12</ele>
        <time>2020-08-12T09:20:28Z</time>
      </trkpt>
      <trkpt lat="47.57643" lon="-3.0232">
        <ele>13.6</ele>
        <time>2020-08-12T09:20:43Z</time>
      </trkpt>
      <trkpt lat="47.57656" lon="-3.02321">
        <ele>13.6</ele>
        <time>2020-08-12T09:20:57Z</time>
      </trkpt>
      <trkpt lat="47.57657" lon="-3.02321">
        <ele>13.12</ele>
        <time>2020-08-12T09:20:58Z</time>
      </trkpt>
      <trkpt lat="47.57667" lon="-3.02321">
        <ele>13.6</ele>
        <time>2020-08-12T09:21:07Z</time>
      </trkpt>
      <trkpt lat="47.57682" lon="-3.02326">
        <ele>13.6</ele>
        <time>2020-08-12T09:21:20Z</time>
      </trkpt>
      <trkpt lat="47.57686" lon="-3.02325">
        <ele>13.12</ele>
        <time>2020-08-12T09:21:24Z</time>
      </trkpt>
      <trkpt lat="47.57702" lon="-3.02325">
        <ele>12.15</ele>
        <time>2020-08-12T09:21:38Z</time>
      </trkpt>
      <trkpt lat="47.57704" lon="-3.02326">
        <ele>11.67</ele>
        <time>2020-08-12T09:21:41Z</time>
      </trkpt>
      <trkpt lat="47.57708" lon="-3.02325">
        <ele>11.19</ele>
        <time>2020-08-12T09:21:44Z</time>
      </trkpt>
      <trkpt lat="47.57715" lon="-3.02318">
        <ele>11.19</ele>
        <time>2020-08-12T09:21:51Z</time>
      </trkpt>
      <trkpt lat="47.57725" lon="-3.02319">
        <ele>10.23</ele>
        <time>2020-08-12T09:22:00Z</time>
      </trkpt>
      <trkpt lat="47.57742" lon="-3.02327">
        <ele>10.23</ele>
        <time>2020-08-12T09:22:14Z</time>
      </trkpt>
      <trkpt lat="47.57748" lon="-3.0233">
        <ele>10.71</ele>
        <time>2020-08-12T09:22:20Z</time>
      </trkpt>
      <trkpt lat="47.57759" lon="-3.02323">
        <ele>10.71</ele>
        <time>2020-08-12T09:22:31Z</time>
      </trkpt>
      <trkpt lat="47.57766" lon="-3.0232">
        <ele>10.71</ele>
        <time>2020-08-12T09:22:38Z</time>
      </trkpt>
      <trkpt lat="47.57774" lon="-3.02318">
        <ele>12.15</ele>
        <time>2020-08-12T09:22:48Z</time>
      </trkpt>
      <trkpt lat="47.57788" lon="-3.02318">
        <ele>13.12</ele>
        <time>2020-08-12T09:23:00Z</time>
      </trkpt>
      <trkpt lat="47.57794" lon="-3.02316">
        <ele>13.6</ele>
        <time>2020-08-12T09:23:05Z</time>
      </trkpt>
      <trkpt lat="47.57798" lon="-3.02313">
        <ele>13.12</ele>
        <time>2020-08-12T09:23:10Z</time>
      </trkpt>
      <trkpt lat="47.57808" lon="-3.0231">
        <ele>12.63</ele>
        <time>2020-08-12T09:23:21Z</time>
      </trkpt>
      <trkpt lat="47.5781" lon="-3.02308">
        <ele>12.63</ele>
        <time>2020-08-12T09:23:24Z</time>
      </trkpt>
      <trkpt lat="47.57816" lon="-3.02304">
        <ele>12.63</ele>
        <time>2020-08-12T09:23:29Z</time>
      </trkpt>
      <trkpt lat="47.57819" lon="-3.02303">
        <ele>12.63</ele>
        <time>2020-08-12T09:23:32Z</time>
      </trkpt>
      <trkpt lat="47.57825" lon="-3.02301">
        <ele>12.15</ele>
        <time>2020-08-12T09:23:37Z</time>
      </trkpt>
      <trkpt lat="47.57836" lon="-3.02293">
        <ele>11.67</ele>
        <time>2020-08-12T09:23:48Z</time>
      </trkpt>
      <trkpt lat="47.57846" lon="-3.02283">
        <ele>11.19</ele>
        <time>2020-08-12T09:24:00Z</time>
      </trkpt>
      <trkpt lat="47.57853" lon="-3.02272">
        <ele>10.23</ele>
        <time>2020-08-12T09:24:10Z</time>
      </trkpt>
      <trkpt lat="47.57862" lon="-3.02257">
        <ele>10.71</ele>
        <time>2020-08-12T09:24:22Z</time>
      </trkpt>
      <trkpt lat="47.57878" lon="-3.02242">
        <ele>10.23</ele>
        <time>2020-08-12T09:24:38Z</time>
      </trkpt>
      <trkpt lat="47.57879" lon="-3.02241">
        <ele>10.23</ele>
        <time>2020-08-12T09:24:40Z</time>
      </trkpt>
      <trkpt lat="47.57885" lon="-3.02238">
        <ele>9.75</ele>
        <time>2020-08-12T09:24:45Z</time>
      </trkpt>
      <trkpt lat="47.57888" lon="-3.0223">
        <ele>9.27</ele>
        <time>2020-08-12T09:24:50Z</time>
      </trkpt>
      <trkpt lat="47.57902" lon="-3.02226">
        <ele>10.23</ele>
        <time>2020-08-12T09:25:03Z</time>
      </trkpt>
      <trkpt lat="47.5791" lon="-3.02227">
        <ele>9.75</ele>
        <time>2020-08-12T09:25:11Z</time>
      </trkpt>
      <trkpt lat="47.57912" lon="-3.02226">
        <ele>10.23</ele>
        <time>2020-08-12T09:25:13Z</time>
      </trkpt>
      <trkpt lat="47.57915" lon="-3.02227">
        <ele>10.23</ele>
        <time>2020-08-12T09:25:16Z</time>
      </trkpt>
      <trkpt lat="47.57922" lon="-3.02226">
        <ele>9.75</ele>
        <time>2020-08-12T09:25:23Z</time>
      </trkpt>
      <trkpt lat="47.57924" lon="-3.02227">
        <ele>10.23</ele>
        <time>2020-08-12T09:25:25Z</time>
      </trkpt>
      <trkpt lat="47.57939" lon="-3.02233">
        <ele>9.75</ele>
        <time>2020-08-12T09:25:40Z</time>
      </trkpt>
      <trkpt lat="47.57943" lon="-3.02237">
        <ele>9.27</ele>
        <time>2020-08-12T09:25:54Z</time>
      </trkpt>
      <trkpt lat="47.57943" lon="-3.02237">
        <ele>9.27</ele>
        <time>2020-08-12T09:26:17Z</time>
      </trkpt>
      <trkpt lat="47.57943" lon="-3.02238">
        <ele>9.27</ele>
        <time>2020-08-12T09:26:41Z</time>
      </trkpt>
      <trkpt lat="47.57943" lon="-3.02238">
        <ele>9.27</ele>
        <time>2020-08-12T09:27:04Z</time>
      </trkpt>
      <trkpt lat="47.57946" lon="-3.02244">
        <ele>9.27</ele>
        <time>2020-08-12T09:27:09Z</time>
      </trkpt>
      <trkpt lat="47.57946" lon="-3.02251">
        <ele>9.27</ele>
        <time>2020-08-12T09:27:14Z</time>
      </trkpt>
      <trkpt lat="47.57947" lon="-3.02257">
        <ele>8.79</ele>
        <time>2020-08-12T09:27:18Z</time>
      </trkpt>
      <trkpt lat="47.57953" lon="-3.02271">
        <ele>9.27</ele>
        <time>2020-08-12T09:27:28Z</time>
      </trkpt>
      <trkpt lat="47.57956" lon="-3.02274">
        <ele>8.79</ele>
        <time>2020-08-12T09:27:31Z</time>
      </trkpt>
      <trkpt lat="47.57959" lon="-3.02279">
        <ele>8.79</ele>
        <time>2020-08-12T09:27:35Z</time>
      </trkpt>
      <trkpt lat="47.57966" lon="-3.02291">
        <ele>9.27</ele>
        <time>2020-08-12T09:27:44Z</time>
      </trkpt>
      <trkpt lat="47.57968" lon="-3.02295">
        <ele>8.31</ele>
        <time>2020-08-12T09:27:47Z</time>
      </trkpt>
      <trkpt lat="47.57979" lon="-3.02319">
        <ele>8.31</ele>
        <time>2020-08-12T09:28:03Z</time>
      </trkpt>
      <trkpt lat="47.57982" lon="-3.02333">
        <ele>8.79</ele>
        <time>2020-08-12T09:28:12Z</time>
      </trkpt>
      <trkpt lat="47.57984" lon="-3.02338">
        <ele>8.31</ele>
        <time>2020-08-12T09:28:17Z</time>
      </trkpt>
      <trkpt lat="47.57986" lon="-3.02344">
        <ele>8.79</ele>
        <time>2020-08-12T09:28:21Z</time>
      </trkpt>
      <trkpt lat="47.57994" lon="-3.02371">
        <ele>8.79</ele>
        <time>2020-08-12T09:28:38Z</time>
      </trkpt>
      <trkpt lat="47.57996" lon="-3.02378">
        <ele>8.79</ele>
        <time>2020-08-12T09:28:43Z</time>
      </trkpt>
      <trkpt lat="47.57999" lon="-3.02383">
        <ele>8.79</ele>
        <time>2020-08-12T09:28:57Z</time>
      </trkpt>
      <trkpt lat="47.58006" lon="-3.02397">
        <ele>8.79</ele>
        <time>2020-08-12T09:29:10Z</time>
      </trkpt>
      <trkpt lat="47.58011" lon="-3.02409">
        <ele>8.79</ele>
        <time>2020-08-12T09:29:22Z</time>
      </trkpt>
      <trkpt lat="47.58013" lon="-3.02417">
        <ele>9.27</ele>
        <time>2020-08-12T09:29:35Z</time>
      </trkpt>
      <trkpt lat="47.58014" lon="-3.0242">
        <ele>9.27</ele>
        <time>2020-08-12T09:29:47Z</time>
      </trkpt>
      <trkpt lat="47.58017" lon="-3.02427">
        <ele>9.27</ele>
        <time>2020-08-12T09:29:52Z</time>
      </trkpt>
      <trkpt lat="47.58018" lon="-3.02434">
        <ele>10.23</ele>
        <time>2020-08-12T09:29:57Z</time>
      </trkpt>
      <trkpt lat="47.58023" lon="-3.02439">
        <ele>9.27</ele>
        <time>2020-08-12T09:30:05Z</time>
      </trkpt>
      <trkpt lat="47.58026" lon="-3.0244">
        <ele>9.27</ele>
        <time>2020-08-12T09:30:08Z</time>
      </trkpt>
      <trkpt lat="47.58033" lon="-3.02455">
        <ele>9.27</ele>
        <time>2020-08-12T09:30:17Z</time>
      </trkpt>
      <trkpt lat="47.58037" lon="-3.02467">
        <ele>9.75</ele>
        <time>2020-08-12T09:30:30Z</time>
      </trkpt>
      <trkpt lat="47.58039" lon="-3.02472">
        <ele>10.23</ele>
        <time>2020-08-12T09:30:33Z</time>
      </trkpt>
      <trkpt lat="47.58049" lon="-3.02488">
        <ele>9.75</ele>
        <time>2020-08-12T09:30:49Z</time>
      </trkpt>
      <trkpt lat="47.58059" lon="-3.02502">
        <ele>9.75</ele>
        <time>2020-08-12T09:31:03Z</time>
      </trkpt>
      <trkpt lat="47.5807" lon="-3.02519">
        <ele>9.75</ele>
        <time>2020-08-12T09:31:18Z</time>
      </trkpt>
      <trkpt lat="47.58082" lon="-3.02539">
        <ele>9.75</ele>
        <time>2020-08-12T09:31:32Z</time>
      </trkpt>
      <trkpt lat="47.58083" lon="-3.02546">
        <ele>10.23</ele>
        <time>2020-08-12T09:31:36Z</time>
      </trkpt>
      <trkpt lat="47.58081" lon="-3.02561">
        <ele>11.67</ele>
        <time>2020-08-12T09:31:48Z</time>
      </trkpt>
      <trkpt lat="47.58082" lon="-3.02564">
        <ele>12.15</ele>
        <time>2020-08-12T09:31:51Z</time>
      </trkpt>
      <trkpt lat="47.5809" lon="-3.02573">
        <ele>12.63</ele>
        <time>2020-08-12T09:32:03Z</time>
      </trkpt>
      <trkpt lat="47.58095" lon="-3.02583">
        <ele>12.63</ele>
        <time>2020-08-12T09:32:11Z</time>
      </trkpt>
      <trkpt lat="47.58097" lon="-3.02589">
        <ele>12.63</ele>
        <time>2020-08-12T09:32:15Z</time>
      </trkpt>
      <trkpt lat="47.58107" lon="-3.02609">
        <ele>13.12</ele>
        <time>2020-08-12T09:32:30Z</time>
      </trkpt>
      <trkpt lat="47.58114" lon="-3.02619">
        <ele>13.6</ele>
        <time>2020-08-12T09:32:38Z</time>
      </trkpt>
      <trkpt lat="47.5812" lon="-3.02626">
        <ele>13.6</ele>
        <time>2020-08-12T09:32:45Z</time>
      </trkpt>
      <trkpt lat="47.58133" lon="-3.02631">
        <ele>13.6</ele>
        <time>2020-08-12T09:32:58Z</time>
      </trkpt>
      <trkpt lat="47.58134" lon="-3.02631">
        <ele>13.12</ele>
        <time>2020-08-12T09:32:59Z</time>
      </trkpt>
      <trkpt lat="47.58139" lon="-3.02637">
        <ele>13.6</ele>
        <time>2020-08-12T09:33:05Z</time>
      </trkpt>
      <trkpt lat="47.58143" lon="-3.02637">
        <ele>13.6</ele>
        <time>2020-08-12T09:33:09Z</time>
      </trkpt>
      <trkpt lat="47.58146" lon="-3.02639">
        <ele>13.6</ele>
        <time>2020-08-12T09:33:12Z</time>
      </trkpt>
      <trkpt lat="47.58156" lon="-3.02642">
        <ele>13.6</ele>
        <time>2020-08-12T09:33:23Z</time>
      </trkpt>
      <trkpt lat="47.58158" lon="-3.02643">
        <ele>13.6</ele>
        <time>2020-08-12T09:33:25Z</time>
      </trkpt>
      <trkpt lat="47.58172" lon="-3.02647">
        <ele>13.6</ele>
        <time>2020-08-12T09:33:35Z</time>
      </trkpt>
      <trkpt lat="47.58186" lon="-3.02665">
        <ele>15.04</ele>
        <time>2020-08-12T09:33:51Z</time>
      </trkpt>
      <trkpt lat="47.58199" lon="-3.02682">
        <ele>15.52</ele>
        <time>2020-08-12T09:34:06Z</time>
      </trkpt>
      <trkpt lat="47.58202" lon="-3.02685">
        <ele>15.52</ele>
        <time>2020-08-12T09:34:09Z</time>
      </trkpt>
      <trkpt lat="47.58207" lon="-3.0269">
        <ele>15.04</ele>
        <time>2020-08-12T09:34:14Z</time>
      </trkpt>
      <trkpt lat="47.58217" lon="-3.02692">
        <ele>14.56</ele>
        <time>2020-08-12T09:34:24Z</time>
      </trkpt>
      <trkpt lat="47.58226" lon="-3.0269">
        <ele>14.08</ele>
        <time>2020-08-12T09:34:33Z</time>
      </trkpt>
      <trkpt lat="47.58232" lon="-3.02694">
        <ele>13.6</ele>
        <time>2020-08-12T09:34:39Z</time>
      </trkpt>
      <trkpt lat="47.58243" lon="-3.02698">
        <ele>13.12</ele>
        <time>2020-08-12T09:34:49Z</time>
      </trkpt>
      <trkpt lat="47.5825" lon="-3.02697">
        <ele>13.12</ele>
        <time>2020-08-12T09:34:55Z</time>
      </trkpt>
      <trkpt lat="47.58256" lon="-3.02697">
        <ele>13.12</ele>
        <time>2020-08-12T09:35:00Z</time>
      </trkpt>
      <trkpt lat="47.58261" lon="-3.02697">
        <ele>13.12</ele>
        <time>2020-08-12T09:35:04Z</time>
      </trkpt>
      <trkpt lat="47.5827" lon="-3.02697">
        <ele>13.12</ele>
        <time>2020-08-12T09:35:12Z</time>
      </trkpt>
      <trkpt lat="47.58278" lon="-3.02694">
        <ele>13.12</ele>
        <time>2020-08-12T09:35:20Z</time>
      </trkpt>
      <trkpt lat="47.58289" lon="-3.02696">
        <ele>13.12</ele>
        <time>2020-08-12T09:35:29Z</time>
      </trkpt>
      <trkpt lat="47.58294" lon="-3.02696">
        <ele>12.63</ele>
        <time>2020-08-12T09:35:33Z</time>
      </trkpt>
      <trkpt lat="47.58311" lon="-3.02695">
        <ele>13.12</ele>
        <time>2020-08-12T09:35:47Z</time>
      </trkpt>
      <trkpt lat="47.58316" lon="-3.02695">
        <ele>13.12</ele>
        <time>2020-08-12T09:35:51Z</time>
      </trkpt>
      <trkpt lat="47.5833" lon="-3.02684">
        <ele>13.6</ele>
        <time>2020-08-12T09:36:06Z</time>
      </trkpt>
      <trkpt lat="47.58333" lon="-3.02685">
        <ele>13.6</ele>
        <time>2020-08-12T09:36:09Z</time>
      </trkpt>
      <trkpt lat="47.58348" lon="-3.02688">
        <ele>14.08</ele>
        <time>2020-08-12T09:36:22Z</time>
      </trkpt>
      <trkpt lat="47.5835" lon="-3.02687">
        <ele>14.08</ele>
        <time>2020-08-12T09:36:25Z</time>
      </trkpt>
      <trkpt lat="47.58358" lon="-3.02693">
        <ele>14.08</ele>
        <time>2020-08-12T09:36:36Z</time>
      </trkpt>
      <trkpt lat="47.58364" lon="-3.02698">
        <ele>15.52</ele>
        <time>2020-08-12T09:36:49Z</time>
      </trkpt>
      <trkpt lat="47.58364" lon="-3.02699">
        <ele>15.52</ele>
        <time>2020-08-12T09:37:12Z</time>
      </trkpt>
      <trkpt lat="47.58364" lon="-3.02699">
        <ele>15.52</ele>
        <time>2020-08-12T09:37:35Z</time>
      </trkpt>
      <trkpt lat="47.58364" lon="-3.02698">
        <ele>15.52</ele>
        <time>2020-08-12T09:37:54Z</time>
      </trkpt>
      <trkpt lat="47.58363" lon="-3.02699">
        <ele>16</ele>
        <time>2020-08-12T09:38:18Z</time>
      </trkpt>
      <trkpt lat="47.58364" lon="-3.027">
        <ele>15.52</ele>
        <time>2020-08-12T09:38:52Z</time>
      </trkpt>
      <trkpt lat="47.58363" lon="-3.02698">
        <ele>16</ele>
        <time>2020-08-12T09:39:27Z</time>
      </trkpt>
      <trkpt lat="47.58364" lon="-3.02698">
        <ele>16</ele>
        <time>2020-08-12T09:39:48Z</time>
      </trkpt>
      <trkpt lat="47.58364" lon="-3.02698">
        <ele>15.52</ele>
        <time>2020-08-12T09:40:12Z</time>
      </trkpt>
      <trkpt lat="47.58364" lon="-3.02698">
        <ele>11.67</ele>
        <time>2020-08-12T09:40:33Z</time>
      </trkpt>
      <trkpt lat="47.58364" lon="-3.02698">
        <ele>18.4</ele>
        <time>2020-08-12T09:40:34Z</time>
      </trkpt>
      <trkpt lat="47.58364" lon="-3.02699">
        <ele>15.04</ele>
        <time>2020-08-12T09:40:47Z</time>
      </trkpt>
      <trkpt lat="47.58364" lon="-3.02699">
        <ele>15.52</ele>
        <time>2020-08-12T09:41:20Z</time>
      </trkpt>
      <trkpt lat="47.58364" lon="-3.027">
        <ele>14.56</ele>
        <time>2020-08-12T09:41:57Z</time>
      </trkpt>
      <trkpt lat="47.58364" lon="-3.02701">
        <ele>15.52</ele>
        <time>2020-08-12T09:42:26Z</time>
      </trkpt>
      <trkpt lat="47.58364" lon="-3.027">
        <ele>14.56</ele>
        <time>2020-08-12T09:42:49Z</time>
      </trkpt>
      <trkpt lat="47.58365" lon="-3.02701">
        <ele>16</ele>
        <time>2020-08-12T09:43:02Z</time>
      </trkpt>
      <trkpt lat="47.58366" lon="-3.02699">
        <ele>15.04</ele>
        <time>2020-08-12T09:43:12Z</time>
      </trkpt>
      <trkpt lat="47.58379" lon="-3.0269">
        <ele>15.04</ele>
        <time>2020-08-12T09:43:27Z</time>
      </trkpt>
      <trkpt lat="47.5839" lon="-3.02689">
        <ele>13.6</ele>
        <time>2020-08-12T09:43:44Z</time>
      </trkpt>
      <trkpt lat="47.58397" lon="-3.02688">
        <ele>13.12</ele>
        <time>2020-08-12T09:43:50Z</time>
      </trkpt>
      <trkpt lat="47.58415" lon="-3.02686">
        <ele>11.67</ele>
        <time>2020-08-12T09:44:08Z</time>
      </trkpt>
      <trkpt lat="47.5842" lon="-3.02686">
        <ele>11.19</ele>
        <time>2020-08-12T09:44:23Z</time>
      </trkpt>
      <trkpt lat="47.5844" lon="-3.02682">
        <ele>10.23</ele>
        <time>2020-08-12T09:44:41Z</time>
      </trkpt>
      <trkpt lat="47.58442" lon="-3.0268">
        <ele>9.75</ele>
        <time>2020-08-12T09:44:43Z</time>
      </trkpt>
      <trkpt lat="47.58448" lon="-3.0268">
        <ele>10.23</ele>
        <time>2020-08-12T09:44:47Z</time>
      </trkpt>
      <trkpt lat="47.5847" lon="-3.02679">
        <ele>10.23</ele>
        <time>2020-08-12T09:45:05Z</time>
      </trkpt>
      <trkpt lat="47.58484" lon="-3.02677">
        <ele>10.71</ele>
        <time>2020-08-12T09:45:20Z</time>
      </trkpt>
      <trkpt lat="47.58485" lon="-3.02677">
        <ele>10.23</ele>
        <time>2020-08-12T09:45:26Z</time>
      </trkpt>
      <trkpt lat="47.58495" lon="-3.02674">
        <ele>10.71</ele>
        <time>2020-08-12T09:45:36Z</time>
      </trkpt>
      <trkpt lat="47.58499" lon="-3.02673">
        <ele>10.71</ele>
        <time>2020-08-12T09:45:40Z</time>
      </trkpt>
      <trkpt lat="47.58505" lon="-3.02671">
        <ele>10.71</ele>
        <time>2020-08-12T09:45:47Z</time>
      </trkpt>
      <trkpt lat="47.5851" lon="-3.02671">
        <ele>10.71</ele>
        <time>2020-08-12T09:45:52Z</time>
      </trkpt>
      <trkpt lat="47.58524" lon="-3.02665">
        <ele>11.19</ele>
        <time>2020-08-12T09:46:06Z</time>
      </trkpt>
      <trkpt lat="47.5854" lon="-3.02659">
        <ele>10.71</ele>
        <time>2020-08-12T09:46:20Z</time>
      </trkpt>
      <trkpt lat="47.58559" lon="-3.02656">
        <ele>10.23</ele>
        <time>2020-08-12T09:46:38Z</time>
      </trkpt>
      <trkpt lat="47.58562" lon="-3.02656">
        <ele>10.71</ele>
        <time>2020-08-12T09:46:41Z</time>
      </trkpt>
      <trkpt lat="47.58568" lon="-3.02658">
        <ele>10.23</ele>
        <time>2020-08-12T09:46:47Z</time>
      </trkpt>
      <trkpt lat="47.5857" lon="-3.02659">
        <ele>10.71</ele>
        <time>2020-08-12T09:46:49Z</time>
      </trkpt>
      <trkpt lat="47.58579" lon="-3.02662">
        <ele>10.71</ele>
        <time>2020-08-12T09:47:01Z</time>
      </trkpt>
      <trkpt lat="47.5859" lon="-3.02667">
        <ele>10.23</ele>
        <time>2020-08-12T09:47:12Z</time>
      </trkpt>
      <trkpt lat="47.58602" lon="-3.02673">
        <ele>11.19</ele>
        <time>2020-08-12T09:47:25Z</time>
      </trkpt>
      <trkpt lat="47.58602" lon="-3.02674">
        <ele>10.71</ele>
        <time>2020-08-12T09:47:38Z</time>
      </trkpt>
      <trkpt lat="47.58602" lon="-3.02676">
        <ele>10.71</ele>
        <time>2020-08-12T09:47:56Z</time>
      </trkpt>
      <trkpt lat="47.58601" lon="-3.02675">
        <ele>10.23</ele>
        <time>2020-08-12T09:48:16Z</time>
      </trkpt>
      <trkpt lat="47.586" lon="-3.02675">
        <ele>10.71</ele>
        <time>2020-08-12T09:48:40Z</time>
      </trkpt>
      <trkpt lat="47.58601" lon="-3.02674">
        <ele>10.71</ele>
        <time>2020-08-12T09:48:51Z</time>
      </trkpt>
      <trkpt lat="47.58607" lon="-3.02675">
        <ele>10.71</ele>
        <time>2020-08-12T09:48:55Z</time>
      </trkpt>
      <trkpt lat="47.5863" lon="-3.02687">
        <ele>10.71</ele>
        <time>2020-08-12T09:49:13Z</time>
      </trkpt>
      <trkpt lat="47.58633" lon="-3.02689">
        <ele>10.71</ele>
        <time>2020-08-12T09:49:18Z</time>
      </trkpt>
      <trkpt lat="47.58636" lon="-3.0269">
        <ele>11.19</ele>
        <time>2020-08-12T09:49:21Z</time>
      </trkpt>
      <trkpt lat="47.58638" lon="-3.0269">
        <ele>10.71</ele>
        <time>2020-08-12T09:49:23Z</time>
      </trkpt>
      <trkpt lat="47.58645" lon="-3.02691">
        <ele>10.71</ele>
        <time>2020-08-12T09:49:28Z</time>
      </trkpt>
      <trkpt lat="47.5867" lon="-3.02702">
        <ele>10.71</ele>
        <time>2020-08-12T09:49:45Z</time>
      </trkpt>
      <trkpt lat="47.58672" lon="-3.02703">
        <ele>10.71</ele>
        <time>2020-08-12T09:49:47Z</time>
      </trkpt>
      <trkpt lat="47.58692" lon="-3.02704">
        <ele>10.71</ele>
        <time>2020-08-12T09:50:02Z</time>
      </trkpt>
      <trkpt lat="47.58708" lon="-3.02715">
        <ele>10.71</ele>
        <time>2020-08-12T09:50:18Z</time>
      </trkpt>
      <trkpt lat="47.5871" lon="-3.02717">
        <ele>11.19</ele>
        <time>2020-08-12T09:50:29Z</time>
      </trkpt>
      <trkpt lat="47.5871" lon="-3.02716">
        <ele>11.19</ele>
        <time>2020-08-12T09:50:43Z</time>
      </trkpt>
      <trkpt lat="47.5871" lon="-3.02716">
        <ele>10.71</ele>
        <time>2020-08-12T09:51:03Z</time>
      </trkpt>
      <trkpt lat="47.58713" lon="-3.02713">
        <ele>11.19</ele>
        <time>2020-08-12T09:51:24Z</time>
      </trkpt>
      <trkpt lat="47.58714" lon="-3.02709">
        <ele>10.71</ele>
        <time>2020-08-12T09:51:50Z</time>
      </trkpt>
      <trkpt lat="47.58715" lon="-3.02707">
        <ele>11.19</ele>
        <time>2020-08-12T09:52:15Z</time>
      </trkpt>
      <trkpt lat="47.58715" lon="-3.02707">
        <ele>11.19</ele>
        <time>2020-08-12T09:52:38Z</time>
      </trkpt>
      <trkpt lat="47.58717" lon="-3.02714">
        <ele>11.19</ele>
        <time>2020-08-12T09:53:00Z</time>
      </trkpt>
      <trkpt lat="47.58715" lon="-3.02715">
        <ele>11.19</ele>
        <time>2020-08-12T09:53:03Z</time>
      </trkpt>
      <trkpt lat="47.58713" lon="-3.02714">
        <ele>10.71</ele>
        <time>2020-08-12T09:53:05Z</time>
      </trkpt>
      <trkpt lat="47.58705" lon="-3.02711">
        <ele>10.71</ele>
        <time>2020-08-12T09:53:13Z</time>
      </trkpt>
      <trkpt lat="47.58686" lon="-3.02704">
        <ele>10.71</ele>
        <time>2020-08-12T09:53:28Z</time>
      </trkpt>
      <trkpt lat="47.58661" lon="-3.02697">
        <ele>10.71</ele>
        <time>2020-08-12T09:53:43Z</time>
      </trkpt>
      <trkpt lat="47.58649" lon="-3.02696">
        <ele>10.71</ele>
        <time>2020-08-12T09:53:54Z</time>
      </trkpt>
      <trkpt lat="47.58642" lon="-3.02693">
        <ele>10.23</ele>
        <time>2020-08-12T09:54:01Z</time>
      </trkpt>
      <trkpt lat="47.5863" lon="-3.02689">
        <ele>10.71</ele>
        <time>2020-08-12T09:54:15Z</time>
      </trkpt>
      <trkpt lat="47.5863" lon="-3.0269">
        <ele>10.71</ele>
        <time>2020-08-12T09:54:22Z</time>
      </trkpt>
      <trkpt lat="47.58633" lon="-3.02693">
        <ele>10.71</ele>
        <time>2020-08-12T09:54:25Z</time>
      </trkpt>
      <trkpt lat="47.58646" lon="-3.02696">
        <ele>10.71</ele>
        <time>2020-08-12T09:54:39Z</time>
      </trkpt>
      <trkpt lat="47.58657" lon="-3.027">
        <ele>10.71</ele>
        <time>2020-08-12T09:54:51Z</time>
      </trkpt>
      <trkpt lat="47.58659" lon="-3.027">
        <ele>10.23</ele>
        <time>2020-08-12T09:54:53Z</time>
      </trkpt>
      <trkpt lat="47.58671" lon="-3.02703">
        <ele>10.23</ele>
        <time>2020-08-12T09:55:07Z</time>
      </trkpt>
      <trkpt lat="47.58676" lon="-3.02705">
        <ele>10.23</ele>
        <time>2020-08-12T09:55:13Z</time>
      </trkpt>
      <trkpt lat="47.58679" lon="-3.02704">
        <ele>10.23</ele>
        <time>2020-08-12T09:55:15Z</time>
      </trkpt>
      <trkpt lat="47.58689" lon="-3.02707">
        <ele>10.23</ele>
        <time>2020-08-12T09:55:29Z</time>
      </trkpt>
      <trkpt lat="47.58689" lon="-3.02709">
        <ele>10.23</ele>
        <time>2020-08-12T09:55:42Z</time>
      </trkpt>
      <trkpt lat="47.58689" lon="-3.0271">
        <ele>10.71</ele>
        <time>2020-08-12T09:55:59Z</time>
      </trkpt>
      <trkpt lat="47.58689" lon="-3.0271">
        <ele>10.23</ele>
        <time>2020-08-12T09:56:16Z</time>
      </trkpt>
      <trkpt lat="47.5869" lon="-3.02711">
        <ele>10.23</ele>
        <time>2020-08-12T09:56:42Z</time>
      </trkpt>
      <trkpt lat="47.58691" lon="-3.02711">
        <ele>10.23</ele>
        <time>2020-08-12T09:56:56Z</time>
      </trkpt>
      <trkpt lat="47.58691" lon="-3.0271">
        <ele>10.71</ele>
        <time>2020-08-12T09:57:13Z</time>
      </trkpt>
      <trkpt lat="47.58691" lon="-3.02711">
        <ele>10.23</ele>
        <time>2020-08-12T09:57:37Z</time>
      </trkpt>
      <trkpt lat="47.58691" lon="-3.02711">
        <ele>12.63</ele>
        <time>2020-08-12T09:57:56Z</time>
      </trkpt>
      <trkpt lat="47.58691" lon="-3.02711">
        <ele>9.27</ele>
        <time>2020-08-12T09:57:57Z</time>
      </trkpt>
      <trkpt lat="47.58691" lon="-3.02711">
        <ele>10.71</ele>
        <time>2020-08-12T09:58:15Z</time>
      </trkpt>
      <trkpt lat="47.58691" lon="-3.02711">
        <ele>10.23</ele>
        <time>2020-08-12T09:58:35Z</time>
      </trkpt>
      <trkpt lat="47.58691" lon="-3.02711">
        <ele>12.15</ele>
        <time>2020-08-12T09:58:48Z</time>
      </trkpt>
      <trkpt lat="47.58691" lon="-3.02711">
        <ele>11.19</ele>
        <time>2020-08-12T09:58:50Z</time>
      </trkpt>
      <trkpt lat="47.58691" lon="-3.02711">
        <ele>11.19</ele>
        <time>2020-08-12T09:59:07Z</time>
      </trkpt>
      <trkpt lat="47.58692" lon="-3.02711">
        <ele>11.19</ele>
        <time>2020-08-12T09:59:13Z</time>
      </trkpt>
      <trkpt lat="47.58695" lon="-3.0271">
        <ele>11.19</ele>
        <time>2020-08-12T09:59:23Z</time>
      </trkpt>
      <trkpt lat="47.58697" lon="-3.02702">
        <ele>10.71</ele>
        <time>2020-08-12T09:59:30Z</time>
      </trkpt>
      <trkpt lat="47.58701" lon="-3.02686">
        <ele>10.71</ele>
        <time>2020-08-12T09:59:42Z</time>
      </trkpt>
      <trkpt lat="47.58702" lon="-3.02666">
        <ele>11.19</ele>
        <time>2020-08-12T09:59:58Z</time>
      </trkpt>
      <trkpt lat="47.58706" lon="-3.02651">
        <ele>11.19</ele>
        <time>2020-08-12T10:00:11Z</time>
      </trkpt>
      <trkpt lat="47.5871" lon="-3.02645">
        <ele>11.67</ele>
        <time>2020-08-12T10:00:24Z</time>
      </trkpt>
      <trkpt lat="47.58714" lon="-3.02639">
        <ele>11.19</ele>
        <time>2020-08-12T10:00:36Z</time>
      </trkpt>
      <trkpt lat="47.5872" lon="-3.02626">
        <ele>11.67</ele>
        <time>2020-08-12T10:00:50Z</time>
      </trkpt>
      <trkpt lat="47.58726" lon="-3.02612">
        <ele>11.67</ele>
        <time>2020-08-12T10:01:04Z</time>
      </trkpt>
      <trkpt lat="47.58731" lon="-3.02604">
        <ele>12.15</ele>
        <time>2020-08-12T10:01:17Z</time>
      </trkpt>
      <trkpt lat="47.58735" lon="-3.02589">
        <ele>11.67</ele>
        <time>2020-08-12T10:01:32Z</time>
      </trkpt>
      <trkpt lat="47.58737" lon="-3.02586">
        <ele>12.63</ele>
        <time>2020-08-12T10:01:49Z</time>
      </trkpt>
      <trkpt lat="47.58737" lon="-3.02585">
        <ele>12.15</ele>
        <time>2020-08-12T10:01:52Z</time>
      </trkpt>
      <trkpt lat="47.58741" lon="-3.0258">
        <ele>12.63</ele>
        <time>2020-08-12T10:02:06Z</time>
      </trkpt>
      <trkpt lat="47.58745" lon="-3.02575">
        <ele>12.63</ele>
        <time>2020-08-12T10:02:18Z</time>
      </trkpt>
      <trkpt lat="47.58746" lon="-3.02571">
        <ele>12.15</ele>
        <time>2020-08-12T10:02:33Z</time>
      </trkpt>
      <trkpt lat="47.58748" lon="-3.02561">
        <ele>12.15</ele>
        <time>2020-08-12T10:02:45Z</time>
      </trkpt>
      <trkpt lat="47.58752" lon="-3.02555">
        <ele>11.67</ele>
        <time>2020-08-12T10:03:08Z</time>
      </trkpt>
      <trkpt lat="47.58755" lon="-3.02546">
        <ele>12.63</ele>
        <time>2020-08-12T10:03:20Z</time>
      </trkpt>
      <trkpt lat="47.58757" lon="-3.02538">
        <ele>12.63</ele>
        <time>2020-08-12T10:03:33Z</time>
      </trkpt>
      <trkpt lat="47.5876" lon="-3.0253">
        <ele>12.63</ele>
        <time>2020-08-12T10:03:45Z</time>
      </trkpt>
      <trkpt lat="47.58763" lon="-3.02519">
        <ele>12.15</ele>
        <time>2020-08-12T10:03:59Z</time>
      </trkpt>
      <trkpt lat="47.5877" lon="-3.02503">
        <ele>12.15</ele>
        <time>2020-08-12T10:04:13Z</time>
      </trkpt>
      <trkpt lat="47.58772" lon="-3.02499">
        <ele>12.63</ele>
        <time>2020-08-12T10:04:26Z</time>
      </trkpt>
      <trkpt lat="47.58776" lon="-3.02491">
        <ele>12.63</ele>
        <time>2020-08-12T10:04:44Z</time>
      </trkpt>
      <trkpt lat="47.5878" lon="-3.02478">
        <ele>12.15</ele>
        <time>2020-08-12T10:04:56Z</time>
      </trkpt>
      <trkpt lat="47.58786" lon="-3.02465">
        <ele>12.63</ele>
        <time>2020-08-12T10:05:10Z</time>
      </trkpt>
      <trkpt lat="47.5879" lon="-3.02451">
        <ele>12.15</ele>
        <time>2020-08-12T10:05:24Z</time>
      </trkpt>
      <trkpt lat="47.58792" lon="-3.02448">
        <ele>12.15</ele>
        <time>2020-08-12T10:05:39Z</time>
      </trkpt>
      <trkpt lat="47.58795" lon="-3.02442">
        <ele>12.15</ele>
        <time>2020-08-12T10:05:50Z</time>
      </trkpt>
      <trkpt lat="47.58798" lon="-3.02437">
        <ele>12.15</ele>
        <time>2020-08-12T10:06:02Z</time>
      </trkpt>
      <trkpt lat="47.58796" lon="-3.02444">
        <ele>12.15</ele>
        <time>2020-08-12T10:06:17Z</time>
      </trkpt>
      <trkpt lat="47.58794" lon="-3.02455">
        <ele>12.63</ele>
        <time>2020-08-12T10:06:31Z</time>
      </trkpt>
      <trkpt lat="47.58794" lon="-3.02457">
        <ele>12.15</ele>
        <time>2020-08-12T10:06:44Z</time>
      </trkpt>
      <trkpt lat="47.58793" lon="-3.02461">
        <ele>12.15</ele>
        <time>2020-08-12T10:07:00Z</time>
      </trkpt>
      <trkpt lat="47.5879" lon="-3.02472">
        <ele>11.67</ele>
        <time>2020-08-12T10:07:12Z</time>
      </trkpt>
      <trkpt lat="47.58787" lon="-3.02479">
        <ele>11.67</ele>
        <time>2020-08-12T10:07:25Z</time>
      </trkpt>
      <trkpt lat="47.58785" lon="-3.02483">
        <ele>12.15</ele>
        <time>2020-08-12T10:07:39Z</time>
      </trkpt>
      <trkpt lat="47.58782" lon="-3.02487">
        <ele>11.67</ele>
        <time>2020-08-12T10:07:52Z</time>
      </trkpt>
      <trkpt lat="47.5878" lon="-3.02496">
        <ele>11.67</ele>
        <time>2020-08-12T10:08:05Z</time>
      </trkpt>
      <trkpt lat="47.58776" lon="-3.02506">
        <ele>12.15</ele>
        <time>2020-08-12T10:08:16Z</time>
      </trkpt>
      <trkpt lat="47.58772" lon="-3.02515">
        <ele>11.67</ele>
        <time>2020-08-12T10:08:30Z</time>
      </trkpt>
      <trkpt lat="47.58766" lon="-3.02529">
        <ele>12.15</ele>
        <time>2020-08-12T10:08:44Z</time>
      </trkpt>
      <trkpt lat="47.58758" lon="-3.02548">
        <ele>11.67</ele>
        <time>2020-08-12T10:08:57Z</time>
      </trkpt>
      <trkpt lat="47.58755" lon="-3.02561">
        <ele>12.15</ele>
        <time>2020-08-12T10:09:08Z</time>
      </trkpt>
      <trkpt lat="47.58753" lon="-3.02564">
        <ele>11.67</ele>
        <time>2020-08-12T10:09:19Z</time>
      </trkpt>
      <trkpt lat="47.5875" lon="-3.02577">
        <ele>11.67</ele>
        <time>2020-08-12T10:09:33Z</time>
      </trkpt>
      <trkpt lat="47.58746" lon="-3.0259">
        <ele>11.67</ele>
        <time>2020-08-12T10:09:47Z</time>
      </trkpt>
      <trkpt lat="47.58744" lon="-3.02597">
        <ele>11.19</ele>
        <time>2020-08-12T10:09:59Z</time>
      </trkpt>
      <trkpt lat="47.58742" lon="-3.02603">
        <ele>11.19</ele>
        <time>2020-08-12T10:10:12Z</time>
      </trkpt>
      <trkpt lat="47.58738" lon="-3.02611">
        <ele>11.67</ele>
        <time>2020-08-12T10:10:26Z</time>
      </trkpt>
      <trkpt lat="47.58734" lon="-3.02618">
        <ele>11.67</ele>
        <time>2020-08-12T10:10:38Z</time>
      </trkpt>
      <trkpt lat="47.5873" lon="-3.02628">
        <ele>11.67</ele>
        <time>2020-08-12T10:10:51Z</time>
      </trkpt>
      <trkpt lat="47.5873" lon="-3.02639">
        <ele>12.15</ele>
        <time>2020-08-12T10:11:05Z</time>
      </trkpt>
      <trkpt lat="47.58734" lon="-3.0265">
        <ele>11.67</ele>
        <time>2020-08-12T10:11:18Z</time>
      </trkpt>
      <trkpt lat="47.58736" lon="-3.02658">
        <ele>11.67</ele>
        <time>2020-08-12T10:11:31Z</time>
      </trkpt>
      <trkpt lat="47.58737" lon="-3.02663">
        <ele>11.67</ele>
        <time>2020-08-12T10:11:44Z</time>
      </trkpt>
      <trkpt lat="47.58737" lon="-3.02665">
        <ele>11.19</ele>
        <time>2020-08-12T10:11:59Z</time>
      </trkpt>
      <trkpt lat="47.58737" lon="-3.02666">
        <ele>11.67</ele>
        <time>2020-08-12T10:12:12Z</time>
      </trkpt>
      <trkpt lat="47.58738" lon="-3.02668">
        <ele>11.67</ele>
        <time>2020-08-12T10:12:36Z</time>
      </trkpt>
      <trkpt lat="47.58738" lon="-3.02669">
        <ele>11.19</ele>
        <time>2020-08-12T10:13:05Z</time>
      </trkpt>
      <trkpt lat="47.58739" lon="-3.02671">
        <ele>11.19</ele>
        <time>2020-08-12T10:13:31Z</time>
      </trkpt>
      <trkpt lat="47.58741" lon="-3.0268">
        <ele>11.19</ele>
        <time>2020-08-12T10:13:46Z</time>
      </trkpt>
      <trkpt lat="47.58743" lon="-3.02685">
        <ele>11.19</ele>
        <time>2020-08-12T10:13:59Z</time>
      </trkpt>
      <trkpt lat="47.58745" lon="-3.02694">
        <ele>11.19</ele>
        <time>2020-08-12T10:14:10Z</time>
      </trkpt>
      <trkpt lat="47.5875" lon="-3.02704">
        <ele>11.19</ele>
        <time>2020-08-12T10:14:23Z</time>
      </trkpt>
      <trkpt lat="47.58754" lon="-3.02711">
        <ele>11.19</ele>
        <time>2020-08-12T10:14:36Z</time>
      </trkpt>
      <trkpt lat="47.58766" lon="-3.02722">
        <ele>11.67</ele>
        <time>2020-08-12T10:14:49Z</time>
      </trkpt>
      <trkpt lat="47.58779" lon="-3.02735">
        <ele>11.19</ele>
        <time>2020-08-12T10:15:03Z</time>
      </trkpt>
      <trkpt lat="47.5879" lon="-3.02745">
        <ele>11.19</ele>
        <time>2020-08-12T10:15:17Z</time>
      </trkpt>
      <trkpt lat="47.58796" lon="-3.0275">
        <ele>11.19</ele>
        <time>2020-08-12T10:15:28Z</time>
      </trkpt>
      <trkpt lat="47.58805" lon="-3.02758">
        <ele>10.71</ele>
        <time>2020-08-12T10:15:40Z</time>
      </trkpt>
      <trkpt lat="47.58814" lon="-3.02762">
        <ele>11.19</ele>
        <time>2020-08-12T10:15:53Z</time>
      </trkpt>
      <trkpt lat="47.58822" lon="-3.0277">
        <ele>11.67</ele>
        <time>2020-08-12T10:16:06Z</time>
      </trkpt>
      <trkpt lat="47.58835" lon="-3.0278">
        <ele>11.67</ele>
        <time>2020-08-12T10:16:21Z</time>
      </trkpt>
      <trkpt lat="47.58839" lon="-3.02785">
        <ele>11.67</ele>
        <time>2020-08-12T10:16:34Z</time>
      </trkpt>
      <trkpt lat="47.58844" lon="-3.0279">
        <ele>11.19</ele>
        <time>2020-08-12T10:16:47Z</time>
      </trkpt>
      <trkpt lat="47.58845" lon="-3.0279">
        <ele>11.19</ele>
        <time>2020-08-12T10:16:48Z</time>
      </trkpt>
      <trkpt lat="47.58852" lon="-3.02795">
        <ele>11.19</ele>
        <time>2020-08-12T10:16:56Z</time>
      </trkpt>
      <trkpt lat="47.58863" lon="-3.02802">
        <ele>11.19</ele>
        <time>2020-08-12T10:17:10Z</time>
      </trkpt>
      <trkpt lat="47.58874" lon="-3.0281">
        <ele>11.19</ele>
        <time>2020-08-12T10:17:23Z</time>
      </trkpt>
      <trkpt lat="47.58883" lon="-3.02819">
        <ele>11.19</ele>
        <time>2020-08-12T10:17:35Z</time>
      </trkpt>
      <trkpt lat="47.58893" lon="-3.02827">
        <ele>11.19</ele>
        <time>2020-08-12T10:17:48Z</time>
      </trkpt>
      <trkpt lat="47.58903" lon="-3.02835">
        <ele>11.67</ele>
        <time>2020-08-12T10:18:02Z</time>
      </trkpt>
      <trkpt lat="47.58915" lon="-3.02842">
        <ele>11.67</ele>
        <time>2020-08-12T10:18:16Z</time>
      </trkpt>
      <trkpt lat="47.58921" lon="-3.02849">
        <ele>11.67</ele>
        <time>2020-08-12T10:18:24Z</time>
      </trkpt>
      <trkpt lat="47.58921" lon="-3.02852">
        <ele>11.67</ele>
        <time>2020-08-12T10:18:30Z</time>
      </trkpt>
      <trkpt lat="47.58923" lon="-3.02855">
        <ele>11.67</ele>
        <time>2020-08-12T10:18:33Z</time>
      </trkpt>
      <trkpt lat="47.58927" lon="-3.02869">
        <ele>11.67</ele>
        <time>2020-08-12T10:18:44Z</time>
      </trkpt>
      <trkpt lat="47.58926" lon="-3.02883">
        <ele>12.15</ele>
        <time>2020-08-12T10:18:58Z</time>
      </trkpt>
      <trkpt lat="47.58925" lon="-3.02886">
        <ele>11.67</ele>
        <time>2020-08-12T10:19:04Z</time>
      </trkpt>
      <trkpt lat="47.58928" lon="-3.02895">
        <ele>12.15</ele>
        <time>2020-08-12T10:19:12Z</time>
      </trkpt>
      <trkpt lat="47.58932" lon="-3.02901">
        <ele>12.63</ele>
        <time>2020-08-12T10:19:22Z</time>
      </trkpt>
      <trkpt lat="47.58933" lon="-3.02903">
        <ele>12.63</ele>
        <time>2020-08-12T10:19:28Z</time>
      </trkpt>
      <trkpt lat="47.58934" lon="-3.02919">
        <ele>13.12</ele>
        <time>2020-08-12T10:19:41Z</time>
      </trkpt>
      <trkpt lat="47.58936" lon="-3.0293">
        <ele>13.12</ele>
        <time>2020-08-12T10:19:54Z</time>
      </trkpt>
      <trkpt lat="47.58935" lon="-3.02941">
        <ele>13.12</ele>
        <time>2020-08-12T10:20:06Z</time>
      </trkpt>
      <trkpt lat="47.58936" lon="-3.02945">
        <ele>13.12</ele>
        <time>2020-08-12T10:20:08Z</time>
      </trkpt>
      <trkpt lat="47.58936" lon="-3.0295">
        <ele>13.12</ele>
        <time>2020-08-12T10:20:12Z</time>
      </trkpt>
      <trkpt lat="47.58938" lon="-3.02955">
        <ele>13.6</ele>
        <time>2020-08-12T10:20:26Z</time>
      </trkpt>
      <trkpt lat="47.58939" lon="-3.02961">
        <ele>14.08</ele>
        <time>2020-08-12T10:20:35Z</time>
      </trkpt>
      <trkpt lat="47.58939" lon="-3.02967">
        <ele>13.6</ele>
        <time>2020-08-12T10:20:39Z</time>
      </trkpt>
      <trkpt lat="47.58938" lon="-3.02969">
        <ele>14.08</ele>
        <time>2020-08-12T10:20:41Z</time>
      </trkpt>
      <trkpt lat="47.58928" lon="-3.02987">
        <ele>14.08</ele>
        <time>2020-08-12T10:20:55Z</time>
      </trkpt>
      <trkpt lat="47.58927" lon="-3.0299">
        <ele>14.08</ele>
        <time>2020-08-12T10:20:57Z</time>
      </trkpt>
      <trkpt lat="47.58923" lon="-3.03">
        <ele>14.08</ele>
        <time>2020-08-12T10:21:08Z</time>
      </trkpt>
      <trkpt lat="47.5892" lon="-3.03011">
        <ele>14.08</ele>
        <time>2020-08-12T10:21:18Z</time>
      </trkpt>
      <trkpt lat="47.58926" lon="-3.0302">
        <ele>13.6</ele>
        <time>2020-08-12T10:21:30Z</time>
      </trkpt>
      <trkpt lat="47.58919" lon="-3.03023">
        <ele>14.08</ele>
        <time>2020-08-12T10:21:43Z</time>
      </trkpt>
      <trkpt lat="47.58896" lon="-3.03036">
        <ele>14.08</ele>
        <time>2020-08-12T10:21:53Z</time>
      </trkpt>
      <trkpt lat="47.58879" lon="-3.03043">
        <ele>14.56</ele>
        <time>2020-08-12T10:22:06Z</time>
      </trkpt>
      <trkpt lat="47.58877" lon="-3.03047">
        <ele>14.56</ele>
        <time>2020-08-12T10:22:09Z</time>
      </trkpt>
      <trkpt lat="47.58878" lon="-3.0305">
        <ele>14.56</ele>
        <time>2020-08-12T10:22:12Z</time>
      </trkpt>
      <trkpt lat="47.58879" lon="-3.0306">
        <ele>15.52</ele>
        <time>2020-08-12T10:22:23Z</time>
      </trkpt>
      <trkpt lat="47.58887" lon="-3.0307">
        <ele>16</ele>
        <time>2020-08-12T10:22:32Z</time>
      </trkpt>
      <trkpt lat="47.5889" lon="-3.03077">
        <ele>16.48</ele>
        <time>2020-08-12T10:22:38Z</time>
      </trkpt>
      <trkpt lat="47.58892" lon="-3.03081">
        <ele>16.96</ele>
        <time>2020-08-12T10:22:41Z</time>
      </trkpt>
      <trkpt lat="47.58894" lon="-3.03083">
        <ele>16.96</ele>
        <time>2020-08-12T10:22:43Z</time>
      </trkpt>
      <trkpt lat="47.58893" lon="-3.03105">
        <ele>18.4</ele>
        <time>2020-08-12T10:22:57Z</time>
      </trkpt>
      <trkpt lat="47.58893" lon="-3.03113">
        <ele>18.88</ele>
        <time>2020-08-12T10:23:02Z</time>
      </trkpt>
      <trkpt lat="47.58894" lon="-3.03116">
        <ele>18.88</ele>
        <time>2020-08-12T10:23:04Z</time>
      </trkpt>
      <trkpt lat="47.58894" lon="-3.0313">
        <ele>19.36</ele>
        <time>2020-08-12T10:23:16Z</time>
      </trkpt>
      <trkpt lat="47.58894" lon="-3.03144">
        <ele>20.32</ele>
        <time>2020-08-12T10:23:27Z</time>
      </trkpt>
      <trkpt lat="47.58895" lon="-3.03153">
        <ele>20.81</ele>
        <time>2020-08-12T10:23:35Z</time>
      </trkpt>
      <trkpt lat="47.58893" lon="-3.03167">
        <ele>21.77</ele>
        <time>2020-08-12T10:23:49Z</time>
      </trkpt>
      <trkpt lat="47.58888" lon="-3.03168">
        <ele>22.25</ele>
        <time>2020-08-12T10:24:08Z</time>
      </trkpt>
      <trkpt lat="47.58887" lon="-3.03167">
        <ele>21.77</ele>
        <time>2020-08-12T10:24:25Z</time>
      </trkpt>
      <trkpt lat="47.58887" lon="-3.03168">
        <ele>21.77</ele>
        <time>2020-08-12T10:24:42Z</time>
      </trkpt>
      <trkpt lat="47.58887" lon="-3.03168">
        <ele>21.77</ele>
        <time>2020-08-12T10:25:03Z</time>
      </trkpt>
      <trkpt lat="47.58887" lon="-3.03169">
        <ele>21.77</ele>
        <time>2020-08-12T10:25:34Z</time>
      </trkpt>
      <trkpt lat="47.58887" lon="-3.03169">
        <ele>22.73</ele>
        <time>2020-08-12T10:25:58Z</time>
      </trkpt>
      <trkpt lat="47.58888" lon="-3.03167">
        <ele>19.36</ele>
        <time>2020-08-12T10:26:06Z</time>
      </trkpt>
      <trkpt lat="47.58888" lon="-3.03167">
        <ele>14.08</ele>
        <time>2020-08-12T10:26:13Z</time>
      </trkpt>
      <trkpt lat="47.58888" lon="-3.03168">
        <ele>22.73</ele>
        <time>2020-08-12T10:26:14Z</time>
      </trkpt>
      <trkpt lat="47.58887" lon="-3.03168">
        <ele>21.77</ele>
        <time>2020-08-12T10:26:18Z</time>
      </trkpt>
      <trkpt lat="47.58887" lon="-3.03165">
        <ele>18.88</ele>
        <time>2020-08-12T10:26:20Z</time>
      </trkpt>
      <trkpt lat="47.58888" lon="-3.03162">
        <ele>20.32</ele>
        <time>2020-08-12T10:26:21Z</time>
      </trkpt>
    </trkseg>
  </trk>
</gpx>